<?xml version="1.0" encoding="UTF-8" standalone="no" ?>
<gpx xmlns="http://www.topografix.com/GPX/1/1" xmlns:xsi="http://www.w3.org/2001/XMLSchema-instance" xsi:schemaLocation="http://www.topografix.com/GPX/1/1 http://www.topografix.com/GPX/1/1/gpx.xsd" version="1.1" creator="VisuGPX - https://www.visugpx.com">
  <metadata>
    <name>Moucherotte - face Est</name>
    <desc><![CDATA[ski
4.3
D  800m
E3
http://www.skitour.fr/sorties/le-moucherotte,45254.html]]></desc>
  </metadata>
  <trk>
    <name><![CDATA[ACTIVE LOG- 23 JAN 2013 07-39]]></name>
    <trkseg>
      <trkpt lat="45.16387" lon="5.62704">
        <ele>1284</ele>
        <time>2013-01-23T06:39:17Z</time>
      </trkpt>
      <trkpt lat="45.16372" lon="5.62707">
        <ele>1283</ele>
        <time>2013-01-23T06:39:36Z</time>
      </trkpt>
      <trkpt lat="45.16353" lon="5.62712">
        <ele>1285</ele>
        <time>2013-01-23T06:39:59Z</time>
      </trkpt>
      <trkpt lat="45.16351" lon="5.62711">
        <ele>1285</ele>
        <time>2013-01-23T06:40:02Z</time>
      </trkpt>
      <trkpt lat="45.16344" lon="5.62715">
        <ele>1286</ele>
        <time>2013-01-23T06:40:13Z</time>
      </trkpt>
      <trkpt lat="45.16336" lon="5.62721">
        <ele>1287</ele>
        <time>2013-01-23T06:40:25Z</time>
      </trkpt>
      <trkpt lat="45.16327" lon="5.62726">
        <ele>1288</ele>
        <time>2013-01-23T06:40:38Z</time>
      </trkpt>
      <trkpt lat="45.16319" lon="5.62733">
        <ele>1290</ele>
        <time>2013-01-23T06:40:51Z</time>
      </trkpt>
      <trkpt lat="45.16312" lon="5.62739">
        <ele>1291</ele>
        <time>2013-01-23T06:41:04Z</time>
      </trkpt>
      <trkpt lat="45.16304" lon="5.62747">
        <ele>1293</ele>
        <time>2013-01-23T06:41:17Z</time>
      </trkpt>
      <trkpt lat="45.16294" lon="5.62755">
        <ele>1294</ele>
        <time>2013-01-23T06:41:33Z</time>
      </trkpt>
      <trkpt lat="45.16285" lon="5.62763">
        <ele>1295</ele>
        <time>2013-01-23T06:41:47Z</time>
      </trkpt>
      <trkpt lat="45.16277" lon="5.62769">
        <ele>1296</ele>
        <time>2013-01-23T06:42:00Z</time>
      </trkpt>
      <trkpt lat="45.16269" lon="5.62777">
        <ele>1298</ele>
        <time>2013-01-23T06:42:15Z</time>
      </trkpt>
      <trkpt lat="45.16261" lon="5.62783">
        <ele>1300</ele>
        <time>2013-01-23T06:42:29Z</time>
      </trkpt>
      <trkpt lat="45.16256" lon="5.6279">
        <ele>1301</ele>
        <time>2013-01-23T06:42:44Z</time>
      </trkpt>
      <trkpt lat="45.16247" lon="5.62798">
        <ele>1303</ele>
        <time>2013-01-23T06:42:58Z</time>
      </trkpt>
      <trkpt lat="45.16244" lon="5.628">
        <ele>1303</ele>
        <time>2013-01-23T06:43:02Z</time>
      </trkpt>
      <trkpt lat="45.16237" lon="5.62808">
        <ele>1305</ele>
        <time>2013-01-23T06:43:14Z</time>
      </trkpt>
      <trkpt lat="45.16232" lon="5.62814">
        <ele>1306</ele>
        <time>2013-01-23T06:43:26Z</time>
      </trkpt>
      <trkpt lat="45.16226" lon="5.62822">
        <ele>1308</ele>
        <time>2013-01-23T06:43:39Z</time>
      </trkpt>
      <trkpt lat="45.1622" lon="5.62829">
        <ele>1309</ele>
        <time>2013-01-23T06:43:52Z</time>
      </trkpt>
      <trkpt lat="45.16215" lon="5.62837">
        <ele>1311</ele>
        <time>2013-01-23T06:44:06Z</time>
      </trkpt>
      <trkpt lat="45.16209" lon="5.62843">
        <ele>1313</ele>
        <time>2013-01-23T06:44:18Z</time>
      </trkpt>
      <trkpt lat="45.16202" lon="5.62851">
        <ele>1315</ele>
        <time>2013-01-23T06:44:32Z</time>
      </trkpt>
      <trkpt lat="45.16196" lon="5.62857">
        <ele>1317</ele>
        <time>2013-01-23T06:44:44Z</time>
      </trkpt>
      <trkpt lat="45.16192" lon="5.62866">
        <ele>1318</ele>
        <time>2013-01-23T06:44:57Z</time>
      </trkpt>
      <trkpt lat="45.16185" lon="5.62866">
        <ele>1320</ele>
        <time>2013-01-23T06:45:09Z</time>
      </trkpt>
      <trkpt lat="45.1618" lon="5.62867">
        <ele>1321</ele>
        <time>2013-01-23T06:45:22Z</time>
      </trkpt>
      <trkpt lat="45.16176" lon="5.62874">
        <ele>1323</ele>
        <time>2013-01-23T06:45:34Z</time>
      </trkpt>
      <trkpt lat="45.16171" lon="5.62882">
        <ele>1325</ele>
        <time>2013-01-23T06:45:46Z</time>
      </trkpt>
      <trkpt lat="45.16165" lon="5.62891">
        <ele>1327</ele>
        <time>2013-01-23T06:45:59Z</time>
      </trkpt>
      <trkpt lat="45.16162" lon="5.62899">
        <ele>1329</ele>
        <time>2013-01-23T06:46:12Z</time>
      </trkpt>
      <trkpt lat="45.16157" lon="5.62907">
        <ele>1330</ele>
        <time>2013-01-23T06:46:24Z</time>
      </trkpt>
      <trkpt lat="45.16152" lon="5.62912">
        <ele>1332</ele>
        <time>2013-01-23T06:46:35Z</time>
      </trkpt>
      <trkpt lat="45.16151" lon="5.62921">
        <ele>1333</ele>
        <time>2013-01-23T06:46:47Z</time>
      </trkpt>
      <trkpt lat="45.16149" lon="5.6293">
        <ele>1335</ele>
        <time>2013-01-23T06:46:59Z</time>
      </trkpt>
      <trkpt lat="45.16144" lon="5.62937">
        <ele>1337</ele>
        <time>2013-01-23T06:47:12Z</time>
      </trkpt>
      <trkpt lat="45.16139" lon="5.62942">
        <ele>1339</ele>
        <time>2013-01-23T06:47:24Z</time>
      </trkpt>
      <trkpt lat="45.16132" lon="5.62949">
        <ele>1341</ele>
        <time>2013-01-23T06:47:40Z</time>
      </trkpt>
      <trkpt lat="45.16127" lon="5.62955">
        <ele>1343</ele>
        <time>2013-01-23T06:47:56Z</time>
      </trkpt>
      <trkpt lat="45.16126" lon="5.62963">
        <ele>1345</ele>
        <time>2013-01-23T06:48:07Z</time>
      </trkpt>
      <trkpt lat="45.16128" lon="5.62972">
        <ele>1346</ele>
        <time>2013-01-23T06:48:19Z</time>
      </trkpt>
      <trkpt lat="45.1613" lon="5.62982">
        <ele>1348</ele>
        <time>2013-01-23T06:48:31Z</time>
      </trkpt>
      <trkpt lat="45.16133" lon="5.62988">
        <ele>1349</ele>
        <time>2013-01-23T06:48:41Z</time>
      </trkpt>
      <trkpt lat="45.16134" lon="5.62995">
        <ele>1350</ele>
        <time>2013-01-23T06:48:50Z</time>
      </trkpt>
      <trkpt lat="45.16134" lon="5.62997">
        <ele>1350</ele>
        <time>2013-01-23T06:48:52Z</time>
      </trkpt>
      <trkpt lat="45.16134" lon="5.63008">
        <ele>1350</ele>
        <time>2013-01-23T06:49:06Z</time>
      </trkpt>
      <trkpt lat="45.16128" lon="5.63015">
        <ele>1352</ele>
        <time>2013-01-23T06:49:19Z</time>
      </trkpt>
      <trkpt lat="45.16124" lon="5.63016">
        <ele>1352</ele>
        <time>2013-01-23T06:49:25Z</time>
      </trkpt>
      <trkpt lat="45.16116" lon="5.63018">
        <ele>1354</ele>
        <time>2013-01-23T06:49:41Z</time>
      </trkpt>
      <trkpt lat="45.16109" lon="5.6302">
        <ele>1356</ele>
        <time>2013-01-23T06:49:53Z</time>
      </trkpt>
      <trkpt lat="45.161" lon="5.63022">
        <ele>1358</ele>
        <time>2013-01-23T06:50:07Z</time>
      </trkpt>
      <trkpt lat="45.16092" lon="5.63022">
        <ele>1360</ele>
        <time>2013-01-23T06:50:21Z</time>
      </trkpt>
      <trkpt lat="45.16084" lon="5.63021">
        <ele>1361</ele>
        <time>2013-01-23T06:50:37Z</time>
      </trkpt>
      <trkpt lat="45.16078" lon="5.6302">
        <ele>1363</ele>
        <time>2013-01-23T06:50:51Z</time>
      </trkpt>
      <trkpt lat="45.16074" lon="5.6302">
        <ele>1364</ele>
        <time>2013-01-23T06:51:08Z</time>
      </trkpt>
      <trkpt lat="45.16072" lon="5.63029">
        <ele>1366</ele>
        <time>2013-01-23T06:51:21Z</time>
      </trkpt>
      <trkpt lat="45.16071" lon="5.63031">
        <ele>1366</ele>
        <time>2013-01-23T06:51:24Z</time>
      </trkpt>
      <trkpt lat="45.16066" lon="5.63034">
        <ele>1368</ele>
        <time>2013-01-23T06:51:33Z</time>
      </trkpt>
      <trkpt lat="45.16064" lon="5.63039">
        <ele>1369</ele>
        <time>2013-01-23T06:51:41Z</time>
      </trkpt>
      <trkpt lat="45.16058" lon="5.6304">
        <ele>1371</ele>
        <time>2013-01-23T06:51:55Z</time>
      </trkpt>
      <trkpt lat="45.16053" lon="5.6304">
        <ele>1371</ele>
        <time>2013-01-23T06:52:06Z</time>
      </trkpt>
      <trkpt lat="45.16052" lon="5.63046">
        <ele>1373</ele>
        <time>2013-01-23T06:52:16Z</time>
      </trkpt>
      <trkpt lat="45.16052" lon="5.63052">
        <ele>1374</ele>
        <time>2013-01-23T06:52:25Z</time>
      </trkpt>
      <trkpt lat="45.1605" lon="5.63055">
        <ele>1375</ele>
        <time>2013-01-23T06:52:35Z</time>
      </trkpt>
      <trkpt lat="45.16044" lon="5.63055">
        <ele>1377</ele>
        <time>2013-01-23T06:52:49Z</time>
      </trkpt>
      <trkpt lat="45.16043" lon="5.63054">
        <ele>1377</ele>
        <time>2013-01-23T06:53:06Z</time>
      </trkpt>
      <trkpt lat="45.16043" lon="5.63063">
        <ele>1377</ele>
        <time>2013-01-23T06:53:24Z</time>
      </trkpt>
      <trkpt lat="45.16041" lon="5.63067">
        <ele>1379</ele>
        <time>2013-01-23T06:53:34Z</time>
      </trkpt>
      <trkpt lat="45.16035" lon="5.63066">
        <ele>1380</ele>
        <time>2013-01-23T06:53:49Z</time>
      </trkpt>
      <trkpt lat="45.16031" lon="5.63067">
        <ele>1382</ele>
        <time>2013-01-23T06:54:01Z</time>
      </trkpt>
      <trkpt lat="45.1603" lon="5.63072">
        <ele>1383</ele>
        <time>2013-01-23T06:54:10Z</time>
      </trkpt>
      <trkpt lat="45.16031" lon="5.63079">
        <ele>1383</ele>
        <time>2013-01-23T06:54:19Z</time>
      </trkpt>
      <trkpt lat="45.16027" lon="5.63082">
        <ele>1384</ele>
        <time>2013-01-23T06:54:30Z</time>
      </trkpt>
      <trkpt lat="45.16024" lon="5.63085">
        <ele>1385</ele>
        <time>2013-01-23T06:54:39Z</time>
      </trkpt>
      <trkpt lat="45.16023" lon="5.63085">
        <ele>1386</ele>
        <time>2013-01-23T06:54:43Z</time>
      </trkpt>
      <trkpt lat="45.16019" lon="5.63088">
        <ele>1388</ele>
        <time>2013-01-23T06:54:55Z</time>
      </trkpt>
      <trkpt lat="45.16013" lon="5.63092">
        <ele>1390</ele>
        <time>2013-01-23T06:55:09Z</time>
      </trkpt>
      <trkpt lat="45.16012" lon="5.63094">
        <ele>1391</ele>
        <time>2013-01-23T06:55:26Z</time>
      </trkpt>
      <trkpt lat="45.16012" lon="5.63104">
        <ele>1392</ele>
        <time>2013-01-23T06:55:42Z</time>
      </trkpt>
      <trkpt lat="45.16011" lon="5.63109">
        <ele>1394</ele>
        <time>2013-01-23T06:55:53Z</time>
      </trkpt>
      <trkpt lat="45.1601" lon="5.63113">
        <ele>1395</ele>
        <time>2013-01-23T06:56:05Z</time>
      </trkpt>
      <trkpt lat="45.16004" lon="5.63114">
        <ele>1396</ele>
        <time>2013-01-23T06:56:17Z</time>
      </trkpt>
      <trkpt lat="45.15997" lon="5.63114">
        <ele>1398</ele>
        <time>2013-01-23T06:56:29Z</time>
      </trkpt>
      <trkpt lat="45.1599" lon="5.6311">
        <ele>1400</ele>
        <time>2013-01-23T06:56:43Z</time>
      </trkpt>
      <trkpt lat="45.15983" lon="5.63105">
        <ele>1401</ele>
        <time>2013-01-23T06:56:55Z</time>
      </trkpt>
      <trkpt lat="45.15978" lon="5.63109">
        <ele>1404</ele>
        <time>2013-01-23T06:57:11Z</time>
      </trkpt>
      <trkpt lat="45.15979" lon="5.63118">
        <ele>1406</ele>
        <time>2013-01-23T06:57:28Z</time>
      </trkpt>
      <trkpt lat="45.15975" lon="5.63127">
        <ele>1408</ele>
        <time>2013-01-23T06:57:51Z</time>
      </trkpt>
      <trkpt lat="45.15973" lon="5.63138">
        <ele>1410</ele>
        <time>2013-01-23T06:58:08Z</time>
      </trkpt>
      <trkpt lat="45.1597" lon="5.63143">
        <ele>1412</ele>
        <time>2013-01-23T06:58:20Z</time>
      </trkpt>
      <trkpt lat="45.15967" lon="5.63146">
        <ele>1413</ele>
        <time>2013-01-23T06:58:31Z</time>
      </trkpt>
      <trkpt lat="45.15965" lon="5.63151">
        <ele>1415</ele>
        <time>2013-01-23T06:58:42Z</time>
      </trkpt>
      <trkpt lat="45.15959" lon="5.63154">
        <ele>1416</ele>
        <time>2013-01-23T06:58:54Z</time>
      </trkpt>
      <trkpt lat="45.15959" lon="5.63158">
        <ele>1417</ele>
        <time>2013-01-23T06:59:02Z</time>
      </trkpt>
      <trkpt lat="45.15954" lon="5.63158">
        <ele>1418</ele>
        <time>2013-01-23T06:59:07Z</time>
      </trkpt>
      <trkpt lat="45.15948" lon="5.63158">
        <ele>1420</ele>
        <time>2013-01-23T06:59:19Z</time>
      </trkpt>
      <trkpt lat="45.15948" lon="5.63156">
        <ele>1420</ele>
        <time>2013-01-23T06:59:37Z</time>
      </trkpt>
      <trkpt lat="45.15948" lon="5.63159">
        <ele>1420</ele>
        <time>2013-01-23T06:59:51Z</time>
      </trkpt>
      <trkpt lat="45.15948" lon="5.63161">
        <ele>1418</ele>
        <time>2013-01-23T07:00:27Z</time>
      </trkpt>
      <trkpt lat="45.15948" lon="5.63159">
        <ele>1418</ele>
        <time>2013-01-23T07:00:49Z</time>
      </trkpt>
      <trkpt lat="45.15947" lon="5.63163">
        <ele>1419</ele>
        <time>2013-01-23T07:01:04Z</time>
      </trkpt>
      <trkpt lat="45.15943" lon="5.63168">
        <ele>1420</ele>
        <time>2013-01-23T07:01:15Z</time>
      </trkpt>
      <trkpt lat="45.15946" lon="5.63176">
        <ele>1422</ele>
        <time>2013-01-23T07:01:28Z</time>
      </trkpt>
      <trkpt lat="45.15946" lon="5.6318">
        <ele>1423</ele>
        <time>2013-01-23T07:01:33Z</time>
      </trkpt>
      <trkpt lat="45.15945" lon="5.63191">
        <ele>1426</ele>
        <time>2013-01-23T07:01:46Z</time>
      </trkpt>
      <trkpt lat="45.15943" lon="5.63198">
        <ele>1427</ele>
        <time>2013-01-23T07:01:57Z</time>
      </trkpt>
      <trkpt lat="45.15939" lon="5.63202">
        <ele>1429</ele>
        <time>2013-01-23T07:02:08Z</time>
      </trkpt>
      <trkpt lat="45.15939" lon="5.63207">
        <ele>1430</ele>
        <time>2013-01-23T07:02:19Z</time>
      </trkpt>
      <trkpt lat="45.15939" lon="5.63211">
        <ele>1431</ele>
        <time>2013-01-23T07:02:31Z</time>
      </trkpt>
      <trkpt lat="45.15941" lon="5.63217">
        <ele>1432</ele>
        <time>2013-01-23T07:02:42Z</time>
      </trkpt>
      <trkpt lat="45.15942" lon="5.63225">
        <ele>1434</ele>
        <time>2013-01-23T07:02:55Z</time>
      </trkpt>
      <trkpt lat="45.15938" lon="5.63228">
        <ele>1436</ele>
        <time>2013-01-23T07:03:09Z</time>
      </trkpt>
      <trkpt lat="45.15934" lon="5.63231">
        <ele>1437</ele>
        <time>2013-01-23T07:03:22Z</time>
      </trkpt>
      <trkpt lat="45.15929" lon="5.63231">
        <ele>1439</ele>
        <time>2013-01-23T07:03:34Z</time>
      </trkpt>
      <trkpt lat="45.15925" lon="5.63232">
        <ele>1439</ele>
        <time>2013-01-23T07:03:46Z</time>
      </trkpt>
      <trkpt lat="45.15921" lon="5.63235">
        <ele>1441</ele>
        <time>2013-01-23T07:03:58Z</time>
      </trkpt>
      <trkpt lat="45.15918" lon="5.63239">
        <ele>1442</ele>
        <time>2013-01-23T07:04:08Z</time>
      </trkpt>
      <trkpt lat="45.15919" lon="5.63246">
        <ele>1444</ele>
        <time>2013-01-23T07:04:19Z</time>
      </trkpt>
      <trkpt lat="45.15923" lon="5.63252">
        <ele>1445</ele>
        <time>2013-01-23T07:04:29Z</time>
      </trkpt>
      <trkpt lat="45.15926" lon="5.63259">
        <ele>1446</ele>
        <time>2013-01-23T07:04:43Z</time>
      </trkpt>
      <trkpt lat="45.15928" lon="5.63263">
        <ele>1447</ele>
        <time>2013-01-23T07:04:52Z</time>
      </trkpt>
      <trkpt lat="45.15928" lon="5.63268">
        <ele>1449</ele>
        <time>2013-01-23T07:05:02Z</time>
      </trkpt>
      <trkpt lat="45.15927" lon="5.63273">
        <ele>1450</ele>
        <time>2013-01-23T07:05:12Z</time>
      </trkpt>
      <trkpt lat="45.1593" lon="5.63277">
        <ele>1453</ele>
        <time>2013-01-23T07:05:24Z</time>
      </trkpt>
      <trkpt lat="45.15932" lon="5.63279">
        <ele>1453</ele>
        <time>2013-01-23T07:05:36Z</time>
      </trkpt>
      <trkpt lat="45.15933" lon="5.6328">
        <ele>1453</ele>
        <time>2013-01-23T07:05:55Z</time>
      </trkpt>
      <trkpt lat="45.15931" lon="5.63284">
        <ele>1453</ele>
        <time>2013-01-23T07:06:21Z</time>
      </trkpt>
      <trkpt lat="45.15926" lon="5.63285">
        <ele>1454</ele>
        <time>2013-01-23T07:06:33Z</time>
      </trkpt>
      <trkpt lat="45.15917" lon="5.63287">
        <ele>1455</ele>
        <time>2013-01-23T07:06:48Z</time>
      </trkpt>
      <trkpt lat="45.15911" lon="5.63286">
        <ele>1456</ele>
        <time>2013-01-23T07:06:59Z</time>
      </trkpt>
      <trkpt lat="45.15909" lon="5.63286">
        <ele>1456</ele>
        <time>2013-01-23T07:07:01Z</time>
      </trkpt>
      <trkpt lat="45.15903" lon="5.63286">
        <ele>1458</ele>
        <time>2013-01-23T07:07:14Z</time>
      </trkpt>
      <trkpt lat="45.15904" lon="5.6329">
        <ele>1459</ele>
        <time>2013-01-23T07:07:20Z</time>
      </trkpt>
      <trkpt lat="45.15905" lon="5.63296">
        <ele>1458</ele>
        <time>2013-01-23T07:07:39Z</time>
      </trkpt>
      <trkpt lat="45.1591" lon="5.63301">
        <ele>1459</ele>
        <time>2013-01-23T07:07:47Z</time>
      </trkpt>
      <trkpt lat="45.1592" lon="5.6331">
        <ele>1461</ele>
        <time>2013-01-23T07:08:03Z</time>
      </trkpt>
      <trkpt lat="45.15928" lon="5.63315">
        <ele>1463</ele>
        <time>2013-01-23T07:08:15Z</time>
      </trkpt>
      <trkpt lat="45.1594" lon="5.6332">
        <ele>1465</ele>
        <time>2013-01-23T07:08:30Z</time>
      </trkpt>
      <trkpt lat="45.15951" lon="5.63324">
        <ele>1466</ele>
        <time>2013-01-23T07:08:43Z</time>
      </trkpt>
      <trkpt lat="45.15962" lon="5.63326">
        <ele>1468</ele>
        <time>2013-01-23T07:08:56Z</time>
      </trkpt>
      <trkpt lat="45.15971" lon="5.63329">
        <ele>1469</ele>
        <time>2013-01-23T07:09:08Z</time>
      </trkpt>
      <trkpt lat="45.15978" lon="5.63333">
        <ele>1471</ele>
        <time>2013-01-23T07:09:19Z</time>
      </trkpt>
      <trkpt lat="45.15986" lon="5.63342">
        <ele>1473</ele>
        <time>2013-01-23T07:09:34Z</time>
      </trkpt>
      <trkpt lat="45.15996" lon="5.63348">
        <ele>1476</ele>
        <time>2013-01-23T07:09:46Z</time>
      </trkpt>
      <trkpt lat="45.16005" lon="5.63353">
        <ele>1479</ele>
        <time>2013-01-23T07:10:01Z</time>
      </trkpt>
      <trkpt lat="45.16012" lon="5.63361">
        <ele>1481</ele>
        <time>2013-01-23T07:10:14Z</time>
      </trkpt>
      <trkpt lat="45.16018" lon="5.63371">
        <ele>1484</ele>
        <time>2013-01-23T07:10:27Z</time>
      </trkpt>
      <trkpt lat="45.16015" lon="5.63382">
        <ele>1486</ele>
        <time>2013-01-23T07:10:41Z</time>
      </trkpt>
      <trkpt lat="45.1601" lon="5.63389">
        <ele>1487</ele>
        <time>2013-01-23T07:10:53Z</time>
      </trkpt>
      <trkpt lat="45.1601" lon="5.63389">
        <ele>1487</ele>
        <time>2013-01-23T07:10:54Z</time>
      </trkpt>
      <trkpt lat="45.16" lon="5.63398">
        <ele>1490</ele>
        <time>2013-01-23T07:11:10Z</time>
      </trkpt>
      <trkpt lat="45.15993" lon="5.63405">
        <ele>1493</ele>
        <time>2013-01-23T07:11:25Z</time>
      </trkpt>
      <trkpt lat="45.15987" lon="5.63412">
        <ele>1496</ele>
        <time>2013-01-23T07:11:38Z</time>
      </trkpt>
      <trkpt lat="45.15983" lon="5.6342">
        <ele>1498</ele>
        <time>2013-01-23T07:11:52Z</time>
      </trkpt>
      <trkpt lat="45.1598" lon="5.63429">
        <ele>1501</ele>
        <time>2013-01-23T07:12:06Z</time>
      </trkpt>
      <trkpt lat="45.1598" lon="5.6343">
        <ele>1501</ele>
        <time>2013-01-23T07:12:09Z</time>
      </trkpt>
      <trkpt lat="45.15974" lon="5.6344">
        <ele>1504</ele>
        <time>2013-01-23T07:12:22Z</time>
      </trkpt>
      <trkpt lat="45.15976" lon="5.63453">
        <ele>1507</ele>
        <time>2013-01-23T07:12:37Z</time>
      </trkpt>
      <trkpt lat="45.15974" lon="5.63461">
        <ele>1509</ele>
        <time>2013-01-23T07:12:51Z</time>
      </trkpt>
      <trkpt lat="45.15976" lon="5.63473">
        <ele>1512</ele>
        <time>2013-01-23T07:13:05Z</time>
      </trkpt>
      <trkpt lat="45.15977" lon="5.63487">
        <ele>1514</ele>
        <time>2013-01-23T07:13:20Z</time>
      </trkpt>
      <trkpt lat="45.15979" lon="5.63506">
        <ele>1517</ele>
        <time>2013-01-23T07:13:39Z</time>
      </trkpt>
      <trkpt lat="45.1598" lon="5.63519">
        <ele>1520</ele>
        <time>2013-01-23T07:13:52Z</time>
      </trkpt>
      <trkpt lat="45.1598" lon="5.63523">
        <ele>1520</ele>
        <time>2013-01-23T07:13:56Z</time>
      </trkpt>
      <trkpt lat="45.15981" lon="5.63532">
        <ele>1521</ele>
        <time>2013-01-23T07:14:04Z</time>
      </trkpt>
      <trkpt lat="45.15982" lon="5.63552">
        <ele>1524</ele>
        <time>2013-01-23T07:14:22Z</time>
      </trkpt>
      <trkpt lat="45.15985" lon="5.63568">
        <ele>1527</ele>
        <time>2013-01-23T07:14:38Z</time>
      </trkpt>
      <trkpt lat="45.15986" lon="5.63587">
        <ele>1530</ele>
        <time>2013-01-23T07:14:56Z</time>
      </trkpt>
      <trkpt lat="45.15987" lon="5.63603">
        <ele>1532</ele>
        <time>2013-01-23T07:15:13Z</time>
      </trkpt>
      <trkpt lat="45.15987" lon="5.63619">
        <ele>1535</ele>
        <time>2013-01-23T07:15:28Z</time>
      </trkpt>
      <trkpt lat="45.1599" lon="5.63635">
        <ele>1538</ele>
        <time>2013-01-23T07:15:45Z</time>
      </trkpt>
      <trkpt lat="45.15991" lon="5.6365">
        <ele>1541</ele>
        <time>2013-01-23T07:16:00Z</time>
      </trkpt>
      <trkpt lat="45.15992" lon="5.63664">
        <ele>1544</ele>
        <time>2013-01-23T07:16:14Z</time>
      </trkpt>
      <trkpt lat="45.15992" lon="5.63678">
        <ele>1545</ele>
        <time>2013-01-23T07:16:29Z</time>
      </trkpt>
      <trkpt lat="45.15994" lon="5.63694">
        <ele>1547</ele>
        <time>2013-01-23T07:16:45Z</time>
      </trkpt>
      <trkpt lat="45.15994" lon="5.63695">
        <ele>1548</ele>
        <time>2013-01-23T07:16:46Z</time>
      </trkpt>
      <trkpt lat="45.15996" lon="5.63709">
        <ele>1549</ele>
        <time>2013-01-23T07:16:58Z</time>
      </trkpt>
      <trkpt lat="45.15978" lon="5.63724">
        <ele>1549</ele>
        <time>2013-01-23T07:17:17Z</time>
      </trkpt>
      <trkpt lat="45.15972" lon="5.63724">
        <ele>1549</ele>
        <time>2013-01-23T07:17:22Z</time>
      </trkpt>
      <trkpt lat="45.15952" lon="5.63721">
        <ele>1548</ele>
        <time>2013-01-23T07:17:36Z</time>
      </trkpt>
      <trkpt lat="45.15933" lon="5.63717">
        <ele>1549</ele>
        <time>2013-01-23T07:17:54Z</time>
      </trkpt>
      <trkpt lat="45.15922" lon="5.63713">
        <ele>1550</ele>
        <time>2013-01-23T07:18:06Z</time>
      </trkpt>
      <trkpt lat="45.15909" lon="5.6371">
        <ele>1551</ele>
        <time>2013-01-23T07:18:21Z</time>
      </trkpt>
      <trkpt lat="45.15889" lon="5.63706">
        <ele>1555</ele>
        <time>2013-01-23T07:18:45Z</time>
      </trkpt>
      <trkpt lat="45.15877" lon="5.63698">
        <ele>1557</ele>
        <time>2013-01-23T07:19:01Z</time>
      </trkpt>
      <trkpt lat="45.15861" lon="5.63692">
        <ele>1560</ele>
        <time>2013-01-23T07:19:21Z</time>
      </trkpt>
      <trkpt lat="45.1585" lon="5.6369">
        <ele>1562</ele>
        <time>2013-01-23T07:19:36Z</time>
      </trkpt>
      <trkpt lat="45.15838" lon="5.6369">
        <ele>1563</ele>
        <time>2013-01-23T07:19:49Z</time>
      </trkpt>
      <trkpt lat="45.15828" lon="5.63692">
        <ele>1566</ele>
        <time>2013-01-23T07:20:05Z</time>
      </trkpt>
      <trkpt lat="45.15826" lon="5.63693">
        <ele>1567</ele>
        <time>2013-01-23T07:20:08Z</time>
      </trkpt>
      <trkpt lat="45.15818" lon="5.63694">
        <ele>1569</ele>
        <time>2013-01-23T07:20:23Z</time>
      </trkpt>
      <trkpt lat="45.15808" lon="5.63693">
        <ele>1572</ele>
        <time>2013-01-23T07:20:37Z</time>
      </trkpt>
      <trkpt lat="45.15798" lon="5.63693">
        <ele>1576</ele>
        <time>2013-01-23T07:20:52Z</time>
      </trkpt>
      <trkpt lat="45.1579" lon="5.63691">
        <ele>1577</ele>
        <time>2013-01-23T07:21:01Z</time>
      </trkpt>
      <trkpt lat="45.15776" lon="5.63686">
        <ele>1577</ele>
        <time>2013-01-23T07:21:14Z</time>
      </trkpt>
      <trkpt lat="45.15765" lon="5.63685">
        <ele>1579</ele>
        <time>2013-01-23T07:21:27Z</time>
      </trkpt>
      <trkpt lat="45.15752" lon="5.63681">
        <ele>1581</ele>
        <time>2013-01-23T07:21:43Z</time>
      </trkpt>
      <trkpt lat="45.15745" lon="5.6368">
        <ele>1583</ele>
        <time>2013-01-23T07:21:54Z</time>
      </trkpt>
      <trkpt lat="45.15739" lon="5.6368">
        <ele>1584</ele>
        <time>2013-01-23T07:22:00Z</time>
      </trkpt>
      <trkpt lat="45.15731" lon="5.63679">
        <ele>1587</ele>
        <time>2013-01-23T07:22:14Z</time>
      </trkpt>
      <trkpt lat="45.15723" lon="5.63677">
        <ele>1589</ele>
        <time>2013-01-23T07:22:26Z</time>
      </trkpt>
      <trkpt lat="45.15716" lon="5.63671">
        <ele>1591</ele>
        <time>2013-01-23T07:22:39Z</time>
      </trkpt>
      <trkpt lat="45.15709" lon="5.63666">
        <ele>1594</ele>
        <time>2013-01-23T07:22:51Z</time>
      </trkpt>
      <trkpt lat="45.157" lon="5.63652">
        <ele>1596</ele>
        <time>2013-01-23T07:23:08Z</time>
      </trkpt>
      <trkpt lat="45.1569" lon="5.63642">
        <ele>1598</ele>
        <time>2013-01-23T07:23:24Z</time>
      </trkpt>
      <trkpt lat="45.15684" lon="5.6364">
        <ele>1599</ele>
        <time>2013-01-23T07:23:36Z</time>
      </trkpt>
      <trkpt lat="45.15672" lon="5.63641">
        <ele>1602</ele>
        <time>2013-01-23T07:23:55Z</time>
      </trkpt>
      <trkpt lat="45.15664" lon="5.6364">
        <ele>1605</ele>
        <time>2013-01-23T07:24:09Z</time>
      </trkpt>
      <trkpt lat="45.15658" lon="5.63638">
        <ele>1607</ele>
        <time>2013-01-23T07:24:21Z</time>
      </trkpt>
      <trkpt lat="45.15655" lon="5.63637">
        <ele>1608</ele>
        <time>2013-01-23T07:24:26Z</time>
      </trkpt>
      <trkpt lat="45.1565" lon="5.63641">
        <ele>1611</ele>
        <time>2013-01-23T07:24:37Z</time>
      </trkpt>
      <trkpt lat="45.15649" lon="5.63641">
        <ele>1611</ele>
        <time>2013-01-23T07:24:39Z</time>
      </trkpt>
      <trkpt lat="45.15645" lon="5.63643">
        <ele>1613</ele>
        <time>2013-01-23T07:24:49Z</time>
      </trkpt>
      <trkpt lat="45.1564" lon="5.63647">
        <ele>1616</ele>
        <time>2013-01-23T07:25:01Z</time>
      </trkpt>
      <trkpt lat="45.15633" lon="5.63651">
        <ele>1618</ele>
        <time>2013-01-23T07:25:14Z</time>
      </trkpt>
      <trkpt lat="45.15629" lon="5.6365">
        <ele>1619</ele>
        <time>2013-01-23T07:25:19Z</time>
      </trkpt>
      <trkpt lat="45.15623" lon="5.63645">
        <ele>1621</ele>
        <time>2013-01-23T07:25:32Z</time>
      </trkpt>
      <trkpt lat="45.15619" lon="5.63638">
        <ele>1623</ele>
        <time>2013-01-23T07:25:44Z</time>
      </trkpt>
      <trkpt lat="45.15615" lon="5.63623">
        <ele>1626</ele>
        <time>2013-01-23T07:25:59Z</time>
      </trkpt>
      <trkpt lat="45.15612" lon="5.63612">
        <ele>1629</ele>
        <time>2013-01-23T07:26:13Z</time>
      </trkpt>
      <trkpt lat="45.15612" lon="5.63596">
        <ele>1631</ele>
        <time>2013-01-23T07:26:29Z</time>
      </trkpt>
      <trkpt lat="45.1561" lon="5.63582">
        <ele>1633</ele>
        <time>2013-01-23T07:26:40Z</time>
      </trkpt>
      <trkpt lat="45.15604" lon="5.6356">
        <ele>1634</ele>
        <time>2013-01-23T07:26:54Z</time>
      </trkpt>
      <trkpt lat="45.15601" lon="5.63556">
        <ele>1633</ele>
        <time>2013-01-23T07:26:57Z</time>
      </trkpt>
      <trkpt lat="45.15591" lon="5.63538">
        <ele>1636</ele>
        <time>2013-01-23T07:27:16Z</time>
      </trkpt>
      <trkpt lat="45.15584" lon="5.63524">
        <ele>1639</ele>
        <time>2013-01-23T07:27:33Z</time>
      </trkpt>
      <trkpt lat="45.15582" lon="5.63513">
        <ele>1643</ele>
        <time>2013-01-23T07:27:48Z</time>
      </trkpt>
      <trkpt lat="45.15589" lon="5.63503">
        <ele>1645</ele>
        <time>2013-01-23T07:28:04Z</time>
      </trkpt>
      <trkpt lat="45.15595" lon="5.63494">
        <ele>1648</ele>
        <time>2013-01-23T07:28:20Z</time>
      </trkpt>
      <trkpt lat="45.15606" lon="5.63494">
        <ele>1650</ele>
        <time>2013-01-23T07:28:34Z</time>
      </trkpt>
      <trkpt lat="45.15622" lon="5.635">
        <ele>1653</ele>
        <time>2013-01-23T07:28:52Z</time>
      </trkpt>
      <trkpt lat="45.15636" lon="5.63507">
        <ele>1656</ele>
        <time>2013-01-23T07:29:10Z</time>
      </trkpt>
      <trkpt lat="45.1564" lon="5.63498">
        <ele>1658</ele>
        <time>2013-01-23T07:29:21Z</time>
      </trkpt>
      <trkpt lat="45.15638" lon="5.6349">
        <ele>1660</ele>
        <time>2013-01-23T07:29:33Z</time>
      </trkpt>
      <trkpt lat="45.15634" lon="5.63486">
        <ele>1661</ele>
        <time>2013-01-23T07:29:38Z</time>
      </trkpt>
      <trkpt lat="45.15619" lon="5.63473">
        <ele>1663</ele>
        <time>2013-01-23T07:29:57Z</time>
      </trkpt>
      <trkpt lat="45.15603" lon="5.63464">
        <ele>1666</ele>
        <time>2013-01-23T07:30:16Z</time>
      </trkpt>
      <trkpt lat="45.15595" lon="5.63461">
        <ele>1668</ele>
        <time>2013-01-23T07:30:27Z</time>
      </trkpt>
      <trkpt lat="45.15591" lon="5.6346">
        <ele>1669</ele>
        <time>2013-01-23T07:30:32Z</time>
      </trkpt>
      <trkpt lat="45.15581" lon="5.63461">
        <ele>1670</ele>
        <time>2013-01-23T07:30:45Z</time>
      </trkpt>
      <trkpt lat="45.1557" lon="5.63463">
        <ele>1673</ele>
        <time>2013-01-23T07:30:59Z</time>
      </trkpt>
      <trkpt lat="45.15559" lon="5.63464">
        <ele>1675</ele>
        <time>2013-01-23T07:31:13Z</time>
      </trkpt>
      <trkpt lat="45.15551" lon="5.63462">
        <ele>1677</ele>
        <time>2013-01-23T07:31:22Z</time>
      </trkpt>
      <trkpt lat="45.15548" lon="5.63461">
        <ele>1678</ele>
        <time>2013-01-23T07:31:26Z</time>
      </trkpt>
      <trkpt lat="45.15531" lon="5.63459">
        <ele>1680</ele>
        <time>2013-01-23T07:31:43Z</time>
      </trkpt>
      <trkpt lat="45.15519" lon="5.63458">
        <ele>1681</ele>
        <time>2013-01-23T07:31:58Z</time>
      </trkpt>
      <trkpt lat="45.15517" lon="5.63457">
        <ele>1681</ele>
        <time>2013-01-23T07:32:14Z</time>
      </trkpt>
      <trkpt lat="45.15517" lon="5.63457">
        <ele>1681</ele>
        <time>2013-01-23T07:32:31Z</time>
      </trkpt>
      <trkpt lat="45.15517" lon="5.63458">
        <ele>1681</ele>
        <time>2013-01-23T07:33:11Z</time>
      </trkpt>
      <trkpt lat="45.15516" lon="5.63458">
        <ele>1681</ele>
        <time>2013-01-23T07:33:27Z</time>
      </trkpt>
      <trkpt lat="45.15515" lon="5.63458">
        <ele>1680</ele>
        <time>2013-01-23T07:33:40Z</time>
      </trkpt>
      <trkpt lat="45.15512" lon="5.63459">
        <ele>1680</ele>
        <time>2013-01-23T07:34:06Z</time>
      </trkpt>
      <trkpt lat="45.15501" lon="5.63459">
        <ele>1683</ele>
        <time>2013-01-23T07:34:21Z</time>
      </trkpt>
      <trkpt lat="45.15489" lon="5.63461">
        <ele>1686</ele>
        <time>2013-01-23T07:34:35Z</time>
      </trkpt>
      <trkpt lat="45.15483" lon="5.63466">
        <ele>1688</ele>
        <time>2013-01-23T07:34:44Z</time>
      </trkpt>
      <trkpt lat="45.15475" lon="5.63468">
        <ele>1690</ele>
        <time>2013-01-23T07:34:55Z</time>
      </trkpt>
      <trkpt lat="45.15464" lon="5.63472">
        <ele>1693</ele>
        <time>2013-01-23T07:35:08Z</time>
      </trkpt>
      <trkpt lat="45.15451" lon="5.63482">
        <ele>1695</ele>
        <time>2013-01-23T07:35:24Z</time>
      </trkpt>
      <trkpt lat="45.15439" lon="5.63489">
        <ele>1696</ele>
        <time>2013-01-23T07:35:38Z</time>
      </trkpt>
      <trkpt lat="45.15423" lon="5.63497">
        <ele>1698</ele>
        <time>2013-01-23T07:35:55Z</time>
      </trkpt>
      <trkpt lat="45.1541" lon="5.63499">
        <ele>1700</ele>
        <time>2013-01-23T07:36:08Z</time>
      </trkpt>
      <trkpt lat="45.15397" lon="5.63504">
        <ele>1703</ele>
        <time>2013-01-23T07:36:24Z</time>
      </trkpt>
      <trkpt lat="45.15384" lon="5.63512">
        <ele>1705</ele>
        <time>2013-01-23T07:36:39Z</time>
      </trkpt>
      <trkpt lat="45.15374" lon="5.63519">
        <ele>1707</ele>
        <time>2013-01-23T07:36:53Z</time>
      </trkpt>
      <trkpt lat="45.15361" lon="5.63529">
        <ele>1710</ele>
        <time>2013-01-23T07:37:11Z</time>
      </trkpt>
      <trkpt lat="45.15348" lon="5.63536">
        <ele>1713</ele>
        <time>2013-01-23T07:37:27Z</time>
      </trkpt>
      <trkpt lat="45.15338" lon="5.6354">
        <ele>1716</ele>
        <time>2013-01-23T07:37:43Z</time>
      </trkpt>
      <trkpt lat="45.1533" lon="5.63541">
        <ele>1718</ele>
        <time>2013-01-23T07:37:55Z</time>
      </trkpt>
      <trkpt lat="45.15325" lon="5.63542">
        <ele>1720</ele>
        <time>2013-01-23T07:38:02Z</time>
      </trkpt>
      <trkpt lat="45.15314" lon="5.63541">
        <ele>1723</ele>
        <time>2013-01-23T07:38:17Z</time>
      </trkpt>
      <trkpt lat="45.15306" lon="5.63539">
        <ele>1726</ele>
        <time>2013-01-23T07:38:33Z</time>
      </trkpt>
      <trkpt lat="45.153" lon="5.63539">
        <ele>1729</ele>
        <time>2013-01-23T07:38:45Z</time>
      </trkpt>
      <trkpt lat="45.15292" lon="5.63537">
        <ele>1730</ele>
        <time>2013-01-23T07:38:57Z</time>
      </trkpt>
      <trkpt lat="45.15279" lon="5.6353">
        <ele>1732</ele>
        <time>2013-01-23T07:39:13Z</time>
      </trkpt>
      <trkpt lat="45.15262" lon="5.63518">
        <ele>1734</ele>
        <time>2013-01-23T07:39:31Z</time>
      </trkpt>
      <trkpt lat="45.15248" lon="5.63508">
        <ele>1735</ele>
        <time>2013-01-23T07:39:45Z</time>
      </trkpt>
      <trkpt lat="45.15234" lon="5.63497">
        <ele>1736</ele>
        <time>2013-01-23T07:39:59Z</time>
      </trkpt>
      <trkpt lat="45.15223" lon="5.63491">
        <ele>1738</ele>
        <time>2013-01-23T07:40:11Z</time>
      </trkpt>
      <trkpt lat="45.15211" lon="5.63488">
        <ele>1739</ele>
        <time>2013-01-23T07:40:22Z</time>
      </trkpt>
      <trkpt lat="45.152" lon="5.63483">
        <ele>1740</ele>
        <time>2013-01-23T07:40:33Z</time>
      </trkpt>
      <trkpt lat="45.15186" lon="5.6348">
        <ele>1741</ele>
        <time>2013-01-23T07:40:47Z</time>
      </trkpt>
      <trkpt lat="45.15185" lon="5.63481">
        <ele>1741</ele>
        <time>2013-01-23T07:40:49Z</time>
      </trkpt>
      <trkpt lat="45.15172" lon="5.63478">
        <ele>1742</ele>
        <time>2013-01-23T07:41:01Z</time>
      </trkpt>
      <trkpt lat="45.15162" lon="5.63478">
        <ele>1744</ele>
        <time>2013-01-23T07:41:13Z</time>
      </trkpt>
      <trkpt lat="45.15153" lon="5.63478">
        <ele>1746</ele>
        <time>2013-01-23T07:41:23Z</time>
      </trkpt>
      <trkpt lat="45.1514" lon="5.63481">
        <ele>1748</ele>
        <time>2013-01-23T07:41:36Z</time>
      </trkpt>
      <trkpt lat="45.15131" lon="5.63484">
        <ele>1750</ele>
        <time>2013-01-23T07:41:48Z</time>
      </trkpt>
      <trkpt lat="45.15128" lon="5.63486">
        <ele>1751</ele>
        <time>2013-01-23T07:41:52Z</time>
      </trkpt>
      <trkpt lat="45.15125" lon="5.63487">
        <ele>1751</ele>
        <time>2013-01-23T07:41:55Z</time>
      </trkpt>
      <trkpt lat="45.15122" lon="5.63488">
        <ele>1752</ele>
        <time>2013-01-23T07:41:58Z</time>
      </trkpt>
      <trkpt lat="45.1511" lon="5.63491">
        <ele>1754</ele>
        <time>2013-01-23T07:42:11Z</time>
      </trkpt>
      <trkpt lat="45.15095" lon="5.63494">
        <ele>1754</ele>
        <time>2013-01-23T07:42:24Z</time>
      </trkpt>
      <trkpt lat="45.15088" lon="5.63497">
        <ele>1756</ele>
        <time>2013-01-23T07:42:35Z</time>
      </trkpt>
      <trkpt lat="45.15075" lon="5.63502">
        <ele>1758</ele>
        <time>2013-01-23T07:42:52Z</time>
      </trkpt>
      <trkpt lat="45.15066" lon="5.63504">
        <ele>1760</ele>
        <time>2013-01-23T07:43:03Z</time>
      </trkpt>
      <trkpt lat="45.15063" lon="5.63505">
        <ele>1761</ele>
        <time>2013-01-23T07:43:06Z</time>
      </trkpt>
      <trkpt lat="45.15054" lon="5.6351">
        <ele>1763</ele>
        <time>2013-01-23T07:43:19Z</time>
      </trkpt>
      <trkpt lat="45.15046" lon="5.63515">
        <ele>1766</ele>
        <time>2013-01-23T07:43:33Z</time>
      </trkpt>
      <trkpt lat="45.15039" lon="5.63519">
        <ele>1768</ele>
        <time>2013-01-23T07:43:46Z</time>
      </trkpt>
      <trkpt lat="45.15034" lon="5.6352">
        <ele>1770</ele>
        <time>2013-01-23T07:43:56Z</time>
      </trkpt>
      <trkpt lat="45.15025" lon="5.63522">
        <ele>1773</ele>
        <time>2013-01-23T07:44:11Z</time>
      </trkpt>
      <trkpt lat="45.15017" lon="5.63527">
        <ele>1776</ele>
        <time>2013-01-23T07:44:24Z</time>
      </trkpt>
      <trkpt lat="45.15007" lon="5.6353">
        <ele>1778</ele>
        <time>2013-01-23T07:44:37Z</time>
      </trkpt>
      <trkpt lat="45.15002" lon="5.63531">
        <ele>1779</ele>
        <time>2013-01-23T07:44:42Z</time>
      </trkpt>
      <trkpt lat="45.14988" lon="5.63534">
        <ele>1780</ele>
        <time>2013-01-23T07:44:56Z</time>
      </trkpt>
      <trkpt lat="45.14978" lon="5.63538">
        <ele>1782</ele>
        <time>2013-01-23T07:45:09Z</time>
      </trkpt>
      <trkpt lat="45.14972" lon="5.63546">
        <ele>1785</ele>
        <time>2013-01-23T07:45:23Z</time>
      </trkpt>
      <trkpt lat="45.14966" lon="5.63558">
        <ele>1787</ele>
        <time>2013-01-23T07:45:38Z</time>
      </trkpt>
      <trkpt lat="45.1496" lon="5.63566">
        <ele>1790</ele>
        <time>2013-01-23T07:45:52Z</time>
      </trkpt>
      <trkpt lat="45.14954" lon="5.63575">
        <ele>1793</ele>
        <time>2013-01-23T07:46:07Z</time>
      </trkpt>
      <trkpt lat="45.14947" lon="5.63583">
        <ele>1796</ele>
        <time>2013-01-23T07:46:20Z</time>
      </trkpt>
      <trkpt lat="45.14942" lon="5.63591">
        <ele>1799</ele>
        <time>2013-01-23T07:46:31Z</time>
      </trkpt>
      <trkpt lat="45.14938" lon="5.63598">
        <ele>1801</ele>
        <time>2013-01-23T07:46:42Z</time>
      </trkpt>
      <trkpt lat="45.14937" lon="5.63599">
        <ele>1802</ele>
        <time>2013-01-23T07:46:45Z</time>
      </trkpt>
      <trkpt lat="45.14935" lon="5.63601">
        <ele>1803</ele>
        <time>2013-01-23T07:46:47Z</time>
      </trkpt>
      <trkpt lat="45.1493" lon="5.63607">
        <ele>1805</ele>
        <time>2013-01-23T07:46:59Z</time>
      </trkpt>
      <trkpt lat="45.14926" lon="5.63611">
        <ele>1807</ele>
        <time>2013-01-23T07:47:12Z</time>
      </trkpt>
      <trkpt lat="45.1492" lon="5.63619">
        <ele>1809</ele>
        <time>2013-01-23T07:47:23Z</time>
      </trkpt>
      <trkpt lat="45.14913" lon="5.63626">
        <ele>1811</ele>
        <time>2013-01-23T07:47:35Z</time>
      </trkpt>
      <trkpt lat="45.14905" lon="5.63631">
        <ele>1813</ele>
        <time>2013-01-23T07:47:47Z</time>
      </trkpt>
      <trkpt lat="45.14896" lon="5.63633">
        <ele>1815</ele>
        <time>2013-01-23T07:47:58Z</time>
      </trkpt>
      <trkpt lat="45.14886" lon="5.6364">
        <ele>1816</ele>
        <time>2013-01-23T07:48:11Z</time>
      </trkpt>
      <trkpt lat="45.14873" lon="5.63647">
        <ele>1818</ele>
        <time>2013-01-23T07:48:25Z</time>
      </trkpt>
      <trkpt lat="45.14863" lon="5.63654">
        <ele>1819</ele>
        <time>2013-01-23T07:48:37Z</time>
      </trkpt>
      <trkpt lat="45.14863" lon="5.63655">
        <ele>1819</ele>
        <time>2013-01-23T07:48:38Z</time>
      </trkpt>
      <trkpt lat="45.14856" lon="5.63661">
        <ele>1821</ele>
        <time>2013-01-23T07:48:51Z</time>
      </trkpt>
      <trkpt lat="45.14844" lon="5.63671">
        <ele>1824</ele>
        <time>2013-01-23T07:49:06Z</time>
      </trkpt>
      <trkpt lat="45.14832" lon="5.63683">
        <ele>1827</ele>
        <time>2013-01-23T07:49:23Z</time>
      </trkpt>
      <trkpt lat="45.14822" lon="5.63692">
        <ele>1830</ele>
        <time>2013-01-23T07:49:41Z</time>
      </trkpt>
      <trkpt lat="45.14816" lon="5.63706">
        <ele>1832</ele>
        <time>2013-01-23T07:49:57Z</time>
      </trkpt>
      <trkpt lat="45.14814" lon="5.63722">
        <ele>1835</ele>
        <time>2013-01-23T07:50:14Z</time>
      </trkpt>
      <trkpt lat="45.14814" lon="5.63723">
        <ele>1835</ele>
        <time>2013-01-23T07:50:15Z</time>
      </trkpt>
      <trkpt lat="45.14819" lon="5.63736">
        <ele>1837</ele>
        <time>2013-01-23T07:50:30Z</time>
      </trkpt>
      <trkpt lat="45.14833" lon="5.6375">
        <ele>1839</ele>
        <time>2013-01-23T07:50:48Z</time>
      </trkpt>
      <trkpt lat="45.1484" lon="5.63755">
        <ele>1841</ele>
        <time>2013-01-23T07:51:00Z</time>
      </trkpt>
      <trkpt lat="45.14847" lon="5.63761">
        <ele>1844</ele>
        <time>2013-01-23T07:51:14Z</time>
      </trkpt>
      <trkpt lat="45.14853" lon="5.63766">
        <ele>1846</ele>
        <time>2013-01-23T07:51:30Z</time>
      </trkpt>
      <trkpt lat="45.14865" lon="5.63777">
        <ele>1849</ele>
        <time>2013-01-23T07:51:48Z</time>
      </trkpt>
      <trkpt lat="45.14874" lon="5.63786">
        <ele>1852</ele>
        <time>2013-01-23T07:52:04Z</time>
      </trkpt>
      <trkpt lat="45.1488" lon="5.63788">
        <ele>1854</ele>
        <time>2013-01-23T07:52:16Z</time>
      </trkpt>
      <trkpt lat="45.14884" lon="5.63797">
        <ele>1856</ele>
        <time>2013-01-23T07:52:31Z</time>
      </trkpt>
      <trkpt lat="45.14882" lon="5.63805">
        <ele>1858</ele>
        <time>2013-01-23T07:52:45Z</time>
      </trkpt>
      <trkpt lat="45.14878" lon="5.6381">
        <ele>1859</ele>
        <time>2013-01-23T07:52:57Z</time>
      </trkpt>
      <trkpt lat="45.14876" lon="5.63814">
        <ele>1861</ele>
        <time>2013-01-23T07:53:09Z</time>
      </trkpt>
      <trkpt lat="45.14873" lon="5.63823">
        <ele>1863</ele>
        <time>2013-01-23T07:53:24Z</time>
      </trkpt>
      <trkpt lat="45.14873" lon="5.63834">
        <ele>1867</ele>
        <time>2013-01-23T07:53:41Z</time>
      </trkpt>
      <trkpt lat="45.14875" lon="5.63845">
        <ele>1869</ele>
        <time>2013-01-23T07:53:55Z</time>
      </trkpt>
      <trkpt lat="45.14874" lon="5.63853">
        <ele>1871</ele>
        <time>2013-01-23T07:54:03Z</time>
      </trkpt>
      <trkpt lat="45.1487" lon="5.63866">
        <ele>1873</ele>
        <time>2013-01-23T07:54:16Z</time>
      </trkpt>
      <trkpt lat="45.14862" lon="5.6388">
        <ele>1875</ele>
        <time>2013-01-23T07:54:34Z</time>
      </trkpt>
      <trkpt lat="45.14859" lon="5.63888">
        <ele>1878</ele>
        <time>2013-01-23T07:54:48Z</time>
      </trkpt>
      <trkpt lat="45.14855" lon="5.63898">
        <ele>1880</ele>
        <time>2013-01-23T07:55:02Z</time>
      </trkpt>
      <trkpt lat="45.14853" lon="5.63908">
        <ele>1882</ele>
        <time>2013-01-23T07:55:15Z</time>
      </trkpt>
      <trkpt lat="45.1485" lon="5.63917">
        <ele>1885</ele>
        <time>2013-01-23T07:55:27Z</time>
      </trkpt>
      <trkpt lat="45.14843" lon="5.63921">
        <ele>1887</ele>
        <time>2013-01-23T07:55:39Z</time>
      </trkpt>
      <trkpt lat="45.14843" lon="5.6392">
        <ele>1887</ele>
        <time>2013-01-23T07:55:40Z</time>
      </trkpt>
      <trkpt lat="45.14827" lon="5.63912">
        <ele>1887</ele>
        <time>2013-01-23T07:55:58Z</time>
      </trkpt>
      <trkpt lat="45.14819" lon="5.63912">
        <ele>1889</ele>
        <time>2013-01-23T07:56:10Z</time>
      </trkpt>
      <trkpt lat="45.14812" lon="5.63913">
        <ele>1891</ele>
        <time>2013-01-23T07:56:21Z</time>
      </trkpt>
      <trkpt lat="45.14805" lon="5.63912">
        <ele>1894</ele>
        <time>2013-01-23T07:56:37Z</time>
      </trkpt>
      <trkpt lat="45.148" lon="5.63916">
        <ele>1896</ele>
        <time>2013-01-23T07:56:50Z</time>
      </trkpt>
      <trkpt lat="45.14794" lon="5.63914">
        <ele>1898</ele>
        <time>2013-01-23T07:57:01Z</time>
      </trkpt>
      <trkpt lat="45.14789" lon="5.63915">
        <ele>1898</ele>
        <time>2013-01-23T07:57:12Z</time>
      </trkpt>
      <trkpt lat="45.14782" lon="5.63916">
        <ele>1900</ele>
        <time>2013-01-23T07:57:26Z</time>
      </trkpt>
      <trkpt lat="45.14783" lon="5.63923">
        <ele>1903</ele>
        <time>2013-01-23T07:57:38Z</time>
      </trkpt>
      <trkpt lat="45.14783" lon="5.63923">
        <ele>1903</ele>
        <time>2013-01-23T07:57:39Z</time>
      </trkpt>
      <trkpt lat="45.14777" lon="5.63925">
        <ele>1905</ele>
        <time>2013-01-23T07:57:49Z</time>
      </trkpt>
      <trkpt lat="45.14772" lon="5.63924">
        <ele>1905</ele>
        <time>2013-01-23T07:58:06Z</time>
      </trkpt>
      <trkpt lat="45.14765" lon="5.63922">
        <ele>1907</ele>
        <time>2013-01-23T07:58:20Z</time>
      </trkpt>
      <trkpt lat="45.14758" lon="5.63923">
        <ele>1909</ele>
        <time>2013-01-23T07:58:34Z</time>
      </trkpt>
      <trkpt lat="45.14752" lon="5.63923">
        <ele>1911</ele>
        <time>2013-01-23T07:58:47Z</time>
      </trkpt>
      <trkpt lat="45.14745" lon="5.63921">
        <ele>1913</ele>
        <time>2013-01-23T07:58:59Z</time>
      </trkpt>
      <trkpt lat="45.14744" lon="5.63923">
        <ele>1914</ele>
        <time>2013-01-23T07:59:15Z</time>
      </trkpt>
      <trkpt lat="45.14745" lon="5.63924">
        <ele>1914</ele>
        <time>2013-01-23T07:59:16Z</time>
      </trkpt>
      <trkpt lat="45.14753" lon="5.63927">
        <ele>1914</ele>
        <time>2013-01-23T07:59:24Z</time>
      </trkpt>
      <trkpt lat="45.14757" lon="5.63928">
        <ele>1912</ele>
        <time>2013-01-23T07:59:35Z</time>
      </trkpt>
      <trkpt lat="45.14764" lon="5.63933">
        <ele>1912</ele>
        <time>2013-01-23T07:59:44Z</time>
      </trkpt>
      <trkpt lat="45.1477" lon="5.63938">
        <ele>1913</ele>
        <time>2013-01-23T08:00:01Z</time>
      </trkpt>
      <trkpt lat="45.14772" lon="5.63942">
        <ele>1912</ele>
        <time>2013-01-23T08:00:23Z</time>
      </trkpt>
      <trkpt lat="45.14773" lon="5.63945">
        <ele>1911</ele>
        <time>2013-01-23T08:02:14Z</time>
      </trkpt>
      <trkpt lat="45.1477" lon="5.63947">
        <ele>1911</ele>
        <time>2013-01-23T08:03:23Z</time>
      </trkpt>
      <trkpt lat="45.14771" lon="5.63948">
        <ele>1912</ele>
        <time>2013-01-23T08:03:59Z</time>
      </trkpt>
      <trkpt lat="45.14773" lon="5.6395">
        <ele>1910</ele>
        <time>2013-01-23T08:04:22Z</time>
      </trkpt>
      <trkpt lat="45.14773" lon="5.63956">
        <ele>1911</ele>
        <time>2013-01-23T08:04:41Z</time>
      </trkpt>
      <trkpt lat="45.14773" lon="5.63949">
        <ele>1911</ele>
        <time>2013-01-23T08:05:03Z</time>
      </trkpt>
      <trkpt lat="45.14774" lon="5.63953">
        <ele>1911</ele>
        <time>2013-01-23T08:05:25Z</time>
      </trkpt>
      <trkpt lat="45.14773" lon="5.63952">
        <ele>1911</ele>
        <time>2013-01-23T08:05:49Z</time>
      </trkpt>
      <trkpt lat="45.14772" lon="5.63949">
        <ele>1910</ele>
        <time>2013-01-23T08:06:15Z</time>
      </trkpt>
      <trkpt lat="45.14774" lon="5.63945">
        <ele>1910</ele>
        <time>2013-01-23T08:06:40Z</time>
      </trkpt>
      <trkpt lat="45.14774" lon="5.6395">
        <ele>1910</ele>
        <time>2013-01-23T08:07:09Z</time>
      </trkpt>
      <trkpt lat="45.14774" lon="5.63952">
        <ele>1910</ele>
        <time>2013-01-23T08:07:27Z</time>
      </trkpt>
      <trkpt lat="45.14774" lon="5.63954">
        <ele>1909</ele>
        <time>2013-01-23T08:07:50Z</time>
      </trkpt>
      <trkpt lat="45.14774" lon="5.6396">
        <ele>1908</ele>
        <time>2013-01-23T08:08:17Z</time>
      </trkpt>
      <trkpt lat="45.14773" lon="5.63955">
        <ele>1909</ele>
        <time>2013-01-23T08:08:38Z</time>
      </trkpt>
      <trkpt lat="45.14774" lon="5.63958">
        <ele>1908</ele>
        <time>2013-01-23T08:08:57Z</time>
      </trkpt>
      <trkpt lat="45.14772" lon="5.6395">
        <ele>1909</ele>
        <time>2013-01-23T08:09:21Z</time>
      </trkpt>
      <trkpt lat="45.14774" lon="5.63948">
        <ele>1908</ele>
        <time>2013-01-23T08:09:48Z</time>
      </trkpt>
      <trkpt lat="45.14774" lon="5.63949">
        <ele>1908</ele>
        <time>2013-01-23T08:10:06Z</time>
      </trkpt>
      <trkpt lat="45.14774" lon="5.63945">
        <ele>1907</ele>
        <time>2013-01-23T08:10:35Z</time>
      </trkpt>
      <trkpt lat="45.14774" lon="5.63946">
        <ele>1907</ele>
        <time>2013-01-23T08:10:53Z</time>
      </trkpt>
      <trkpt lat="45.14774" lon="5.63948">
        <ele>1907</ele>
        <time>2013-01-23T08:11:19Z</time>
      </trkpt>
      <trkpt lat="45.14773" lon="5.6395">
        <ele>1906</ele>
        <time>2013-01-23T08:11:45Z</time>
      </trkpt>
      <trkpt lat="45.14773" lon="5.63956">
        <ele>1906</ele>
        <time>2013-01-23T08:12:12Z</time>
      </trkpt>
      <trkpt lat="45.14772" lon="5.6396">
        <ele>1906</ele>
        <time>2013-01-23T08:12:39Z</time>
      </trkpt>
      <trkpt lat="45.14771" lon="5.63955">
        <ele>1906</ele>
        <time>2013-01-23T08:12:58Z</time>
      </trkpt>
      <trkpt lat="45.14774" lon="5.63954">
        <ele>1906</ele>
        <time>2013-01-23T08:13:36Z</time>
      </trkpt>
      <trkpt lat="45.14767" lon="5.63939">
        <ele>1906</ele>
        <time>2013-01-23T08:14:04Z</time>
      </trkpt>
      <trkpt lat="45.14763" lon="5.63945">
        <ele>1909</ele>
        <time>2013-01-23T08:14:25Z</time>
      </trkpt>
      <trkpt lat="45.14757" lon="5.63948">
        <ele>1912</ele>
        <time>2013-01-23T08:14:38Z</time>
      </trkpt>
      <trkpt lat="45.14756" lon="5.63948">
        <ele>1912</ele>
        <time>2013-01-23T08:14:58Z</time>
      </trkpt>
      <trkpt lat="45.14752" lon="5.63946">
        <ele>1911</ele>
        <time>2013-01-23T08:15:14Z</time>
      </trkpt>
      <trkpt lat="45.14747" lon="5.63944">
        <ele>1911</ele>
        <time>2013-01-23T08:15:28Z</time>
      </trkpt>
      <trkpt lat="45.14744" lon="5.6394">
        <ele>1911</ele>
        <time>2013-01-23T08:15:41Z</time>
      </trkpt>
      <trkpt lat="45.14743" lon="5.63939">
        <ele>1910</ele>
        <time>2013-01-23T08:15:59Z</time>
      </trkpt>
      <trkpt lat="45.14741" lon="5.63936">
        <ele>1910</ele>
        <time>2013-01-23T08:16:15Z</time>
      </trkpt>
      <trkpt lat="45.14739" lon="5.63933">
        <ele>1909</ele>
        <time>2013-01-23T08:17:00Z</time>
      </trkpt>
      <trkpt lat="45.14727" lon="5.6393">
        <ele>1905</ele>
        <time>2013-01-23T08:17:07Z</time>
      </trkpt>
      <trkpt lat="45.14726" lon="5.6393">
        <ele>1904</ele>
        <time>2013-01-23T08:17:19Z</time>
      </trkpt>
      <trkpt lat="45.14725" lon="5.6393">
        <ele>1905</ele>
        <time>2013-01-23T08:17:49Z</time>
      </trkpt>
      <trkpt lat="45.14721" lon="5.63926">
        <ele>1901</ele>
        <time>2013-01-23T08:17:59Z</time>
      </trkpt>
      <trkpt lat="45.14719" lon="5.63924">
        <ele>1899</ele>
        <time>2013-01-23T08:18:08Z</time>
      </trkpt>
      <trkpt lat="45.14717" lon="5.63919">
        <ele>1896</ele>
        <time>2013-01-23T08:18:15Z</time>
      </trkpt>
      <trkpt lat="45.14717" lon="5.6392">
        <ele>1894</ele>
        <time>2013-01-23T08:18:21Z</time>
      </trkpt>
      <trkpt lat="45.14712" lon="5.63923">
        <ele>1890</ele>
        <time>2013-01-23T08:18:27Z</time>
      </trkpt>
      <trkpt lat="45.14711" lon="5.63922">
        <ele>1889</ele>
        <time>2013-01-23T08:18:47Z</time>
      </trkpt>
      <trkpt lat="45.14711" lon="5.63923">
        <ele>1888</ele>
        <time>2013-01-23T08:19:25Z</time>
      </trkpt>
      <trkpt lat="45.14707" lon="5.63919">
        <ele>1885</ele>
        <time>2013-01-23T08:19:38Z</time>
      </trkpt>
      <trkpt lat="45.14704" lon="5.63918">
        <ele>1882</ele>
        <time>2013-01-23T08:19:43Z</time>
      </trkpt>
      <trkpt lat="45.14704" lon="5.63921">
        <ele>1879</ele>
        <time>2013-01-23T08:19:52Z</time>
      </trkpt>
      <trkpt lat="45.14703" lon="5.63922">
        <ele>1875</ele>
        <time>2013-01-23T08:20:01Z</time>
      </trkpt>
      <trkpt lat="45.14701" lon="5.63927">
        <ele>1873</ele>
        <time>2013-01-23T08:20:03Z</time>
      </trkpt>
      <trkpt lat="45.147" lon="5.63935">
        <ele>1868</ele>
        <time>2013-01-23T08:20:07Z</time>
      </trkpt>
      <trkpt lat="45.14699" lon="5.63936">
        <ele>1866</ele>
        <time>2013-01-23T08:20:10Z</time>
      </trkpt>
      <trkpt lat="45.14699" lon="5.63937">
        <ele>1866</ele>
        <time>2013-01-23T08:21:02Z</time>
      </trkpt>
      <trkpt lat="45.14699" lon="5.63937">
        <ele>1865</ele>
        <time>2013-01-23T08:21:37Z</time>
      </trkpt>
      <trkpt lat="45.14697" lon="5.63939">
        <ele>1868</ele>
        <time>2013-01-23T08:21:44Z</time>
      </trkpt>
      <trkpt lat="45.14697" lon="5.6394">
        <ele>1867</ele>
        <time>2013-01-23T08:22:03Z</time>
      </trkpt>
      <trkpt lat="45.14702" lon="5.63951">
        <ele>1863</ele>
        <time>2013-01-23T08:22:11Z</time>
      </trkpt>
      <trkpt lat="45.14703" lon="5.63958">
        <ele>1859</ele>
        <time>2013-01-23T08:22:15Z</time>
      </trkpt>
      <trkpt lat="45.14704" lon="5.63962">
        <ele>1858</ele>
        <time>2013-01-23T08:22:17Z</time>
      </trkpt>
      <trkpt lat="45.14697" lon="5.63962">
        <ele>1854</ele>
        <time>2013-01-23T08:22:22Z</time>
      </trkpt>
      <trkpt lat="45.14685" lon="5.63962">
        <ele>1851</ele>
        <time>2013-01-23T08:22:26Z</time>
      </trkpt>
      <trkpt lat="45.14684" lon="5.63962">
        <ele>1851</ele>
        <time>2013-01-23T08:22:27Z</time>
      </trkpt>
      <trkpt lat="45.14682" lon="5.63963">
        <ele>1849</ele>
        <time>2013-01-23T08:22:46Z</time>
      </trkpt>
      <trkpt lat="45.14678" lon="5.63963">
        <ele>1849</ele>
        <time>2013-01-23T08:23:01Z</time>
      </trkpt>
      <trkpt lat="45.14675" lon="5.63962">
        <ele>1849</ele>
        <time>2013-01-23T08:23:18Z</time>
      </trkpt>
      <trkpt lat="45.14673" lon="5.63961">
        <ele>1849</ele>
        <time>2013-01-23T08:23:45Z</time>
      </trkpt>
      <trkpt lat="45.14665" lon="5.6396">
        <ele>1848</ele>
        <time>2013-01-23T08:24:11Z</time>
      </trkpt>
      <trkpt lat="45.14658" lon="5.63958">
        <ele>1846</ele>
        <time>2013-01-23T08:24:28Z</time>
      </trkpt>
      <trkpt lat="45.14645" lon="5.63949">
        <ele>1843</ele>
        <time>2013-01-23T08:24:38Z</time>
      </trkpt>
      <trkpt lat="45.1464" lon="5.63949">
        <ele>1842</ele>
        <time>2013-01-23T08:24:42Z</time>
      </trkpt>
      <trkpt lat="45.14637" lon="5.6396">
        <ele>1837</ele>
        <time>2013-01-23T08:24:46Z</time>
      </trkpt>
      <trkpt lat="45.14637" lon="5.63966">
        <ele>1833</ele>
        <time>2013-01-23T08:24:49Z</time>
      </trkpt>
      <trkpt lat="45.14637" lon="5.63959">
        <ele>1832</ele>
        <time>2013-01-23T08:25:02Z</time>
      </trkpt>
      <trkpt lat="45.14633" lon="5.6396">
        <ele>1832</ele>
        <time>2013-01-23T08:25:15Z</time>
      </trkpt>
      <trkpt lat="45.14629" lon="5.63958">
        <ele>1832</ele>
        <time>2013-01-23T08:25:26Z</time>
      </trkpt>
      <trkpt lat="45.14623" lon="5.6396">
        <ele>1831</ele>
        <time>2013-01-23T08:25:31Z</time>
      </trkpt>
      <trkpt lat="45.14626" lon="5.63964">
        <ele>1828</ele>
        <time>2013-01-23T08:25:38Z</time>
      </trkpt>
      <trkpt lat="45.14626" lon="5.63967">
        <ele>1825</ele>
        <time>2013-01-23T08:25:44Z</time>
      </trkpt>
      <trkpt lat="45.14627" lon="5.63969">
        <ele>1823</ele>
        <time>2013-01-23T08:25:50Z</time>
      </trkpt>
      <trkpt lat="45.14628" lon="5.63973">
        <ele>1819</ele>
        <time>2013-01-23T08:25:55Z</time>
      </trkpt>
      <trkpt lat="45.14627" lon="5.63974">
        <ele>1818</ele>
        <time>2013-01-23T08:25:58Z</time>
      </trkpt>
      <trkpt lat="45.14627" lon="5.63973">
        <ele>1818</ele>
        <time>2013-01-23T08:26:10Z</time>
      </trkpt>
      <trkpt lat="45.14626" lon="5.63973">
        <ele>1818</ele>
        <time>2013-01-23T08:26:29Z</time>
      </trkpt>
      <trkpt lat="45.14625" lon="5.63973">
        <ele>1817</ele>
        <time>2013-01-23T08:26:44Z</time>
      </trkpt>
      <trkpt lat="45.14625" lon="5.63974">
        <ele>1817</ele>
        <time>2013-01-23T08:27:09Z</time>
      </trkpt>
      <trkpt lat="45.14625" lon="5.63974">
        <ele>1817</ele>
        <time>2013-01-23T08:28:14Z</time>
      </trkpt>
      <trkpt lat="45.14624" lon="5.63979">
        <ele>1816</ele>
        <time>2013-01-23T08:28:39Z</time>
      </trkpt>
      <trkpt lat="45.14626" lon="5.6398">
        <ele>1815</ele>
        <time>2013-01-23T08:28:55Z</time>
      </trkpt>
      <trkpt lat="45.14628" lon="5.63981">
        <ele>1815</ele>
        <time>2013-01-23T08:29:10Z</time>
      </trkpt>
      <trkpt lat="45.1463" lon="5.6398">
        <ele>1812</ele>
        <time>2013-01-23T08:29:27Z</time>
      </trkpt>
      <trkpt lat="45.1463" lon="5.63977">
        <ele>1812</ele>
        <time>2013-01-23T08:29:51Z</time>
      </trkpt>
      <trkpt lat="45.14629" lon="5.6398">
        <ele>1811</ele>
        <time>2013-01-23T08:34:35Z</time>
      </trkpt>
      <trkpt lat="45.1463" lon="5.63984">
        <ele>1809</ele>
        <time>2013-01-23T08:35:39Z</time>
      </trkpt>
      <trkpt lat="45.1463" lon="5.63985">
        <ele>1807</ele>
        <time>2013-01-23T08:36:05Z</time>
      </trkpt>
      <trkpt lat="45.14631" lon="5.63986">
        <ele>1807</ele>
        <time>2013-01-23T08:36:47Z</time>
      </trkpt>
      <trkpt lat="45.14631" lon="5.63986">
        <ele>1808</ele>
        <time>2013-01-23T08:36:49Z</time>
      </trkpt>
      <trkpt lat="45.14636" lon="5.63991">
        <ele>1805</ele>
        <time>2013-01-23T08:36:56Z</time>
      </trkpt>
      <trkpt lat="45.14637" lon="5.63992">
        <ele>1805</ele>
        <time>2013-01-23T08:37:20Z</time>
      </trkpt>
      <trkpt lat="45.14638" lon="5.63992">
        <ele>1805</ele>
        <time>2013-01-23T08:37:42Z</time>
      </trkpt>
      <trkpt lat="45.14641" lon="5.63991">
        <ele>1804</ele>
        <time>2013-01-23T08:37:44Z</time>
      </trkpt>
      <trkpt lat="45.14646" lon="5.63995">
        <ele>1801</ele>
        <time>2013-01-23T08:38:00Z</time>
      </trkpt>
      <trkpt lat="45.14648" lon="5.63995">
        <ele>1800</ele>
        <time>2013-01-23T08:38:14Z</time>
      </trkpt>
      <trkpt lat="45.1465" lon="5.63997">
        <ele>1800</ele>
        <time>2013-01-23T08:39:20Z</time>
      </trkpt>
      <trkpt lat="45.14653" lon="5.64004">
        <ele>1798</ele>
        <time>2013-01-23T08:39:32Z</time>
      </trkpt>
      <trkpt lat="45.14653" lon="5.64006">
        <ele>1796</ele>
        <time>2013-01-23T08:39:50Z</time>
      </trkpt>
      <trkpt lat="45.14653" lon="5.64006">
        <ele>1795</ele>
        <time>2013-01-23T08:40:19Z</time>
      </trkpt>
      <trkpt lat="45.14652" lon="5.6401">
        <ele>1792</ele>
        <time>2013-01-23T08:40:53Z</time>
      </trkpt>
      <trkpt lat="45.14652" lon="5.6401">
        <ele>1792</ele>
        <time>2013-01-23T08:40:54Z</time>
      </trkpt>
      <trkpt lat="45.14648" lon="5.64011">
        <ele>1790</ele>
        <time>2013-01-23T08:40:59Z</time>
      </trkpt>
      <trkpt lat="45.14648" lon="5.64012">
        <ele>1788</ele>
        <time>2013-01-23T08:41:02Z</time>
      </trkpt>
      <trkpt lat="45.14638" lon="5.64014">
        <ele>1785</ele>
        <time>2013-01-23T08:41:06Z</time>
      </trkpt>
      <trkpt lat="45.14629" lon="5.64023">
        <ele>1778</ele>
        <time>2013-01-23T08:41:09Z</time>
      </trkpt>
      <trkpt lat="45.14627" lon="5.64027">
        <ele>1778</ele>
        <time>2013-01-23T08:41:10Z</time>
      </trkpt>
      <trkpt lat="45.1462" lon="5.64032">
        <ele>1772</ele>
        <time>2013-01-23T08:41:12Z</time>
      </trkpt>
      <trkpt lat="45.14613" lon="5.6404">
        <ele>1767</ele>
        <time>2013-01-23T08:41:14Z</time>
      </trkpt>
      <trkpt lat="45.14609" lon="5.64059">
        <ele>1759</ele>
        <time>2013-01-23T08:41:17Z</time>
      </trkpt>
      <trkpt lat="45.14608" lon="5.64066">
        <ele>1756</ele>
        <time>2013-01-23T08:41:18Z</time>
      </trkpt>
      <trkpt lat="45.14607" lon="5.64072">
        <ele>1752</ele>
        <time>2013-01-23T08:41:19Z</time>
      </trkpt>
      <trkpt lat="45.14607" lon="5.64077">
        <ele>1749</ele>
        <time>2013-01-23T08:41:20Z</time>
      </trkpt>
      <trkpt lat="45.1461" lon="5.64089">
        <ele>1746</ele>
        <time>2013-01-23T08:41:22Z</time>
      </trkpt>
      <trkpt lat="45.14611" lon="5.64094">
        <ele>1743</ele>
        <time>2013-01-23T08:41:23Z</time>
      </trkpt>
      <trkpt lat="45.14612" lon="5.64105">
        <ele>1737</ele>
        <time>2013-01-23T08:41:25Z</time>
      </trkpt>
      <trkpt lat="45.14613" lon="5.64105">
        <ele>1734</ele>
        <time>2013-01-23T08:41:26Z</time>
      </trkpt>
      <trkpt lat="45.14611" lon="5.64104">
        <ele>1730</ele>
        <time>2013-01-23T08:41:28Z</time>
      </trkpt>
      <trkpt lat="45.14611" lon="5.64102">
        <ele>1726</ele>
        <time>2013-01-23T08:41:31Z</time>
      </trkpt>
      <trkpt lat="45.14612" lon="5.64103">
        <ele>1727</ele>
        <time>2013-01-23T08:42:16Z</time>
      </trkpt>
      <trkpt lat="45.14611" lon="5.64118">
        <ele>1723</ele>
        <time>2013-01-23T08:42:22Z</time>
      </trkpt>
      <trkpt lat="45.1461" lon="5.64118">
        <ele>1719</ele>
        <time>2013-01-23T08:42:25Z</time>
      </trkpt>
      <trkpt lat="45.14615" lon="5.64135">
        <ele>1717</ele>
        <time>2013-01-23T08:42:30Z</time>
      </trkpt>
      <trkpt lat="45.14624" lon="5.64152">
        <ele>1709</ele>
        <time>2013-01-23T08:42:33Z</time>
      </trkpt>
      <trkpt lat="45.14628" lon="5.64166">
        <ele>1704</ele>
        <time>2013-01-23T08:42:35Z</time>
      </trkpt>
      <trkpt lat="45.14628" lon="5.64177">
        <ele>1701</ele>
        <time>2013-01-23T08:42:37Z</time>
      </trkpt>
      <trkpt lat="45.14629" lon="5.64183">
        <ele>1698</ele>
        <time>2013-01-23T08:42:38Z</time>
      </trkpt>
      <trkpt lat="45.14629" lon="5.6419">
        <ele>1694</ele>
        <time>2013-01-23T08:42:39Z</time>
      </trkpt>
      <trkpt lat="45.1463" lon="5.64199">
        <ele>1692</ele>
        <time>2013-01-23T08:42:40Z</time>
      </trkpt>
      <trkpt lat="45.1463" lon="5.64213">
        <ele>1684</ele>
        <time>2013-01-23T08:42:42Z</time>
      </trkpt>
      <trkpt lat="45.14629" lon="5.64219">
        <ele>1681</ele>
        <time>2013-01-23T08:42:43Z</time>
      </trkpt>
      <trkpt lat="45.14627" lon="5.64223">
        <ele>1677</ele>
        <time>2013-01-23T08:42:44Z</time>
      </trkpt>
      <trkpt lat="45.14627" lon="5.64226">
        <ele>1674</ele>
        <time>2013-01-23T08:42:45Z</time>
      </trkpt>
      <trkpt lat="45.14626" lon="5.64225">
        <ele>1670</ele>
        <time>2013-01-23T08:42:47Z</time>
      </trkpt>
      <trkpt lat="45.14626" lon="5.64225">
        <ele>1670</ele>
        <time>2013-01-23T08:42:48Z</time>
      </trkpt>
      <trkpt lat="45.14626" lon="5.64225">
        <ele>1669</ele>
        <time>2013-01-23T08:42:50Z</time>
      </trkpt>
      <trkpt lat="45.14626" lon="5.64225">
        <ele>1669</ele>
        <time>2013-01-23T08:43:00Z</time>
      </trkpt>
      <trkpt lat="45.14645" lon="5.64232">
        <ele>1667</ele>
        <time>2013-01-23T08:43:11Z</time>
      </trkpt>
      <trkpt lat="45.14653" lon="5.64233">
        <ele>1665</ele>
        <time>2013-01-23T08:43:26Z</time>
      </trkpt>
      <trkpt lat="45.14654" lon="5.64233">
        <ele>1665</ele>
        <time>2013-01-23T08:43:46Z</time>
      </trkpt>
      <trkpt lat="45.14663" lon="5.64234">
        <ele>1662</ele>
        <time>2013-01-23T08:43:54Z</time>
      </trkpt>
      <trkpt lat="45.14663" lon="5.64236">
        <ele>1660</ele>
        <time>2013-01-23T08:44:04Z</time>
      </trkpt>
      <trkpt lat="45.14664" lon="5.64237">
        <ele>1659</ele>
        <time>2013-01-23T08:44:07Z</time>
      </trkpt>
      <trkpt lat="45.14668" lon="5.64236">
        <ele>1656</ele>
        <time>2013-01-23T08:44:26Z</time>
      </trkpt>
      <trkpt lat="45.14675" lon="5.64235">
        <ele>1653</ele>
        <time>2013-01-23T08:44:52Z</time>
      </trkpt>
      <trkpt lat="45.14678" lon="5.64237">
        <ele>1652</ele>
        <time>2013-01-23T08:45:10Z</time>
      </trkpt>
      <trkpt lat="45.14682" lon="5.64239">
        <ele>1648</ele>
        <time>2013-01-23T08:45:21Z</time>
      </trkpt>
      <trkpt lat="45.14686" lon="5.64239">
        <ele>1645</ele>
        <time>2013-01-23T08:45:26Z</time>
      </trkpt>
      <trkpt lat="45.14685" lon="5.6424">
        <ele>1645</ele>
        <time>2013-01-23T08:45:27Z</time>
      </trkpt>
      <trkpt lat="45.14685" lon="5.64242">
        <ele>1643</ele>
        <time>2013-01-23T08:45:43Z</time>
      </trkpt>
      <trkpt lat="45.14685" lon="5.64243">
        <ele>1643</ele>
        <time>2013-01-23T08:45:46Z</time>
      </trkpt>
      <trkpt lat="45.14682" lon="5.64244">
        <ele>1640</ele>
        <time>2013-01-23T08:45:51Z</time>
      </trkpt>
      <trkpt lat="45.14681" lon="5.64246">
        <ele>1639</ele>
        <time>2013-01-23T08:45:55Z</time>
      </trkpt>
      <trkpt lat="45.14683" lon="5.64254">
        <ele>1635</ele>
        <time>2013-01-23T08:46:01Z</time>
      </trkpt>
      <trkpt lat="45.14684" lon="5.64256">
        <ele>1635</ele>
        <time>2013-01-23T08:46:02Z</time>
      </trkpt>
      <trkpt lat="45.14679" lon="5.64261">
        <ele>1631</ele>
        <time>2013-01-23T08:46:07Z</time>
      </trkpt>
      <trkpt lat="45.14679" lon="5.64259">
        <ele>1631</ele>
        <time>2013-01-23T08:46:10Z</time>
      </trkpt>
      <trkpt lat="45.1468" lon="5.64259">
        <ele>1629</ele>
        <time>2013-01-23T08:46:21Z</time>
      </trkpt>
      <trkpt lat="45.14682" lon="5.6426">
        <ele>1626</ele>
        <time>2013-01-23T08:46:28Z</time>
      </trkpt>
      <trkpt lat="45.14681" lon="5.6426">
        <ele>1626</ele>
        <time>2013-01-23T08:46:29Z</time>
      </trkpt>
      <trkpt lat="45.14682" lon="5.64259">
        <ele>1626</ele>
        <time>2013-01-23T08:46:48Z</time>
      </trkpt>
      <trkpt lat="45.14682" lon="5.64261">
        <ele>1624</ele>
        <time>2013-01-23T08:47:13Z</time>
      </trkpt>
      <trkpt lat="45.14682" lon="5.64265">
        <ele>1622</ele>
        <time>2013-01-23T08:47:18Z</time>
      </trkpt>
      <trkpt lat="45.14681" lon="5.64266">
        <ele>1619</ele>
        <time>2013-01-23T08:47:26Z</time>
      </trkpt>
      <trkpt lat="45.1468" lon="5.6427">
        <ele>1617</ele>
        <time>2013-01-23T08:47:40Z</time>
      </trkpt>
      <trkpt lat="45.1468" lon="5.64273">
        <ele>1613</ele>
        <time>2013-01-23T08:47:56Z</time>
      </trkpt>
      <trkpt lat="45.14681" lon="5.64277">
        <ele>1610</ele>
        <time>2013-01-23T08:48:07Z</time>
      </trkpt>
      <trkpt lat="45.14681" lon="5.64279">
        <ele>1610</ele>
        <time>2013-01-23T08:48:11Z</time>
      </trkpt>
      <trkpt lat="45.14684" lon="5.6429">
        <ele>1606</ele>
        <time>2013-01-23T08:48:17Z</time>
      </trkpt>
      <trkpt lat="45.1468" lon="5.64293">
        <ele>1603</ele>
        <time>2013-01-23T08:48:20Z</time>
      </trkpt>
      <trkpt lat="45.1468" lon="5.64301">
        <ele>1599</ele>
        <time>2013-01-23T08:48:23Z</time>
      </trkpt>
      <trkpt lat="45.1468" lon="5.64302">
        <ele>1599</ele>
        <time>2013-01-23T08:48:24Z</time>
      </trkpt>
      <trkpt lat="45.1468" lon="5.64301">
        <ele>1597</ele>
        <time>2013-01-23T08:48:36Z</time>
      </trkpt>
      <trkpt lat="45.14679" lon="5.64299">
        <ele>1597</ele>
        <time>2013-01-23T08:49:12Z</time>
      </trkpt>
      <trkpt lat="45.14679" lon="5.64297">
        <ele>1597</ele>
        <time>2013-01-23T08:49:43Z</time>
      </trkpt>
      <trkpt lat="45.14679" lon="5.64295">
        <ele>1597</ele>
        <time>2013-01-23T08:50:05Z</time>
      </trkpt>
      <trkpt lat="45.14672" lon="5.64305">
        <ele>1594</ele>
        <time>2013-01-23T08:50:11Z</time>
      </trkpt>
      <trkpt lat="45.14667" lon="5.64312">
        <ele>1591</ele>
        <time>2013-01-23T08:50:13Z</time>
      </trkpt>
      <trkpt lat="45.14665" lon="5.64318">
        <ele>1587</ele>
        <time>2013-01-23T08:50:15Z</time>
      </trkpt>
      <trkpt lat="45.14664" lon="5.64321">
        <ele>1582</ele>
        <time>2013-01-23T08:50:17Z</time>
      </trkpt>
      <trkpt lat="45.14665" lon="5.64322">
        <ele>1578</ele>
        <time>2013-01-23T08:50:20Z</time>
      </trkpt>
      <trkpt lat="45.14665" lon="5.64322">
        <ele>1578</ele>
        <time>2013-01-23T08:50:21Z</time>
      </trkpt>
      <trkpt lat="45.1468" lon="5.64342">
        <ele>1574</ele>
        <time>2013-01-23T08:50:28Z</time>
      </trkpt>
      <trkpt lat="45.14685" lon="5.64348">
        <ele>1573</ele>
        <time>2013-01-23T08:50:30Z</time>
      </trkpt>
      <trkpt lat="45.1469" lon="5.64353">
        <ele>1570</ele>
        <time>2013-01-23T08:50:45Z</time>
      </trkpt>
      <trkpt lat="45.14694" lon="5.64358">
        <ele>1570</ele>
        <time>2013-01-23T08:51:16Z</time>
      </trkpt>
      <trkpt lat="45.14699" lon="5.64363">
        <ele>1570</ele>
        <time>2013-01-23T08:51:29Z</time>
      </trkpt>
      <trkpt lat="45.14699" lon="5.64363">
        <ele>1570</ele>
        <time>2013-01-23T08:51:30Z</time>
      </trkpt>
      <trkpt lat="45.14701" lon="5.64372">
        <ele>1568</ele>
        <time>2013-01-23T08:51:41Z</time>
      </trkpt>
      <trkpt lat="45.14703" lon="5.64369">
        <ele>1569</ele>
        <time>2013-01-23T08:51:53Z</time>
      </trkpt>
      <trkpt lat="45.14704" lon="5.64372">
        <ele>1569</ele>
        <time>2013-01-23T08:52:13Z</time>
      </trkpt>
      <trkpt lat="45.14706" lon="5.64376">
        <ele>1569</ele>
        <time>2013-01-23T08:52:26Z</time>
      </trkpt>
      <trkpt lat="45.14709" lon="5.64378">
        <ele>1569</ele>
        <time>2013-01-23T08:52:42Z</time>
      </trkpt>
      <trkpt lat="45.14714" lon="5.64383">
        <ele>1569</ele>
        <time>2013-01-23T08:52:52Z</time>
      </trkpt>
      <trkpt lat="45.14718" lon="5.64394">
        <ele>1568</ele>
        <time>2013-01-23T08:53:04Z</time>
      </trkpt>
      <trkpt lat="45.14721" lon="5.64397">
        <ele>1568</ele>
        <time>2013-01-23T08:53:12Z</time>
      </trkpt>
      <trkpt lat="45.14724" lon="5.64401">
        <ele>1568</ele>
        <time>2013-01-23T08:53:19Z</time>
      </trkpt>
      <trkpt lat="45.14729" lon="5.64406">
        <ele>1567</ele>
        <time>2013-01-23T08:53:32Z</time>
      </trkpt>
      <trkpt lat="45.14729" lon="5.64407">
        <ele>1566</ele>
        <time>2013-01-23T08:53:45Z</time>
      </trkpt>
      <trkpt lat="45.14731" lon="5.64407">
        <ele>1566</ele>
        <time>2013-01-23T08:53:50Z</time>
      </trkpt>
      <trkpt lat="45.14731" lon="5.64416">
        <ele>1563</ele>
        <time>2013-01-23T08:53:59Z</time>
      </trkpt>
      <trkpt lat="45.14732" lon="5.64418">
        <ele>1561</ele>
        <time>2013-01-23T08:55:26Z</time>
      </trkpt>
      <trkpt lat="45.14734" lon="5.64425">
        <ele>1557</ele>
        <time>2013-01-23T08:55:30Z</time>
      </trkpt>
      <trkpt lat="45.14735" lon="5.64428">
        <ele>1557</ele>
        <time>2013-01-23T08:55:31Z</time>
      </trkpt>
      <trkpt lat="45.14743" lon="5.64429">
        <ele>1554</ele>
        <time>2013-01-23T08:55:35Z</time>
      </trkpt>
      <trkpt lat="45.14749" lon="5.64435">
        <ele>1550</ele>
        <time>2013-01-23T08:55:38Z</time>
      </trkpt>
      <trkpt lat="45.14751" lon="5.64436">
        <ele>1548</ele>
        <time>2013-01-23T08:55:39Z</time>
      </trkpt>
      <trkpt lat="45.14755" lon="5.64436">
        <ele>1543</ele>
        <time>2013-01-23T08:55:42Z</time>
      </trkpt>
      <trkpt lat="45.14759" lon="5.64436">
        <ele>1540</ele>
        <time>2013-01-23T08:55:44Z</time>
      </trkpt>
      <trkpt lat="45.14763" lon="5.64443">
        <ele>1536</ele>
        <time>2013-01-23T08:55:47Z</time>
      </trkpt>
      <trkpt lat="45.14762" lon="5.64446">
        <ele>1533</ele>
        <time>2013-01-23T08:55:49Z</time>
      </trkpt>
      <trkpt lat="45.14762" lon="5.64446">
        <ele>1532</ele>
        <time>2013-01-23T08:55:51Z</time>
      </trkpt>
      <trkpt lat="45.14766" lon="5.64448">
        <ele>1531</ele>
        <time>2013-01-23T08:56:03Z</time>
      </trkpt>
      <trkpt lat="45.1477" lon="5.64451">
        <ele>1530</ele>
        <time>2013-01-23T08:56:05Z</time>
      </trkpt>
      <trkpt lat="45.14776" lon="5.64456">
        <ele>1526</ele>
        <time>2013-01-23T08:56:07Z</time>
      </trkpt>
      <trkpt lat="45.14779" lon="5.64467">
        <ele>1521</ele>
        <time>2013-01-23T08:56:09Z</time>
      </trkpt>
      <trkpt lat="45.14781" lon="5.64475">
        <ele>1515</ele>
        <time>2013-01-23T08:56:11Z</time>
      </trkpt>
      <trkpt lat="45.14784" lon="5.64477">
        <ele>1512</ele>
        <time>2013-01-23T08:56:13Z</time>
      </trkpt>
      <trkpt lat="45.14785" lon="5.64481">
        <ele>1512</ele>
        <time>2013-01-23T08:56:15Z</time>
      </trkpt>
      <trkpt lat="45.14784" lon="5.64484">
        <ele>1510</ele>
        <time>2013-01-23T08:56:30Z</time>
      </trkpt>
      <trkpt lat="45.14783" lon="5.64488">
        <ele>1510</ele>
        <time>2013-01-23T08:56:36Z</time>
      </trkpt>
      <trkpt lat="45.1479" lon="5.64518">
        <ele>1507</ele>
        <time>2013-01-23T08:56:42Z</time>
      </trkpt>
      <trkpt lat="45.14791" lon="5.64524">
        <ele>1506</ele>
        <time>2013-01-23T08:56:44Z</time>
      </trkpt>
      <trkpt lat="45.14792" lon="5.64526">
        <ele>1504</ele>
        <time>2013-01-23T08:56:53Z</time>
      </trkpt>
      <trkpt lat="45.14793" lon="5.64527">
        <ele>1504</ele>
        <time>2013-01-23T08:56:54Z</time>
      </trkpt>
      <trkpt lat="45.14788" lon="5.64533">
        <ele>1500</ele>
        <time>2013-01-23T08:57:01Z</time>
      </trkpt>
      <trkpt lat="45.14786" lon="5.64536">
        <ele>1499</ele>
        <time>2013-01-23T08:57:11Z</time>
      </trkpt>
      <trkpt lat="45.14788" lon="5.64544">
        <ele>1495</ele>
        <time>2013-01-23T08:57:18Z</time>
      </trkpt>
      <trkpt lat="45.14791" lon="5.64549">
        <ele>1492</ele>
        <time>2013-01-23T08:57:20Z</time>
      </trkpt>
      <trkpt lat="45.14789" lon="5.64553">
        <ele>1488</ele>
        <time>2013-01-23T08:57:22Z</time>
      </trkpt>
      <trkpt lat="45.14789" lon="5.64556">
        <ele>1486</ele>
        <time>2013-01-23T08:57:24Z</time>
      </trkpt>
      <trkpt lat="45.14795" lon="5.64567">
        <ele>1484</ele>
        <time>2013-01-23T08:57:38Z</time>
      </trkpt>
      <trkpt lat="45.1479" lon="5.6457">
        <ele>1481</ele>
        <time>2013-01-23T08:57:55Z</time>
      </trkpt>
      <trkpt lat="45.14788" lon="5.64582">
        <ele>1477</ele>
        <time>2013-01-23T08:58:03Z</time>
      </trkpt>
      <trkpt lat="45.1479" lon="5.64582">
        <ele>1474</ele>
        <time>2013-01-23T08:58:16Z</time>
      </trkpt>
      <trkpt lat="45.14793" lon="5.64587">
        <ele>1472</ele>
        <time>2013-01-23T08:58:19Z</time>
      </trkpt>
      <trkpt lat="45.14802" lon="5.64585">
        <ele>1470</ele>
        <time>2013-01-23T08:58:26Z</time>
      </trkpt>
      <trkpt lat="45.14806" lon="5.64591">
        <ele>1467</ele>
        <time>2013-01-23T08:58:30Z</time>
      </trkpt>
      <trkpt lat="45.14798" lon="5.64593">
        <ele>1463</ele>
        <time>2013-01-23T08:58:39Z</time>
      </trkpt>
      <trkpt lat="45.14808" lon="5.646">
        <ele>1460</ele>
        <time>2013-01-23T08:58:49Z</time>
      </trkpt>
      <trkpt lat="45.14816" lon="5.64599">
        <ele>1459</ele>
        <time>2013-01-23T08:58:51Z</time>
      </trkpt>
      <trkpt lat="45.14823" lon="5.64604">
        <ele>1456</ele>
        <time>2013-01-23T08:58:55Z</time>
      </trkpt>
      <trkpt lat="45.14838" lon="5.64601">
        <ele>1455</ele>
        <time>2013-01-23T08:59:13Z</time>
      </trkpt>
      <trkpt lat="45.14851" lon="5.64604">
        <ele>1451</ele>
        <time>2013-01-23T08:59:26Z</time>
      </trkpt>
      <trkpt lat="45.14853" lon="5.64605">
        <ele>1449</ele>
        <time>2013-01-23T08:59:34Z</time>
      </trkpt>
      <trkpt lat="45.1486" lon="5.64612">
        <ele>1445</ele>
        <time>2013-01-23T08:59:39Z</time>
      </trkpt>
      <trkpt lat="45.14856" lon="5.64611">
        <ele>1442</ele>
        <time>2013-01-23T08:59:42Z</time>
      </trkpt>
      <trkpt lat="45.14855" lon="5.64611">
        <ele>1438</ele>
        <time>2013-01-23T09:00:03Z</time>
      </trkpt>
      <trkpt lat="45.14855" lon="5.6461">
        <ele>1437</ele>
        <time>2013-01-23T09:00:05Z</time>
      </trkpt>
      <trkpt lat="45.14857" lon="5.64611">
        <ele>1435</ele>
        <time>2013-01-23T09:00:07Z</time>
      </trkpt>
      <trkpt lat="45.14851" lon="5.6461">
        <ele>1432</ele>
        <time>2013-01-23T09:00:10Z</time>
      </trkpt>
      <trkpt lat="45.14857" lon="5.6461">
        <ele>1428</ele>
        <time>2013-01-23T09:00:14Z</time>
      </trkpt>
      <trkpt lat="45.14857" lon="5.64608">
        <ele>1427</ele>
        <time>2013-01-23T09:00:16Z</time>
      </trkpt>
      <trkpt lat="45.14861" lon="5.64609">
        <ele>1425</ele>
        <time>2013-01-23T09:00:18Z</time>
      </trkpt>
      <trkpt lat="45.14864" lon="5.64608">
        <ele>1421</ele>
        <time>2013-01-23T09:00:27Z</time>
      </trkpt>
      <trkpt lat="45.1487" lon="5.64613">
        <ele>1416</ele>
        <time>2013-01-23T09:00:30Z</time>
      </trkpt>
      <trkpt lat="45.14873" lon="5.64613">
        <ele>1408</ele>
        <time>2013-01-23T09:00:33Z</time>
      </trkpt>
      <trkpt lat="45.14872" lon="5.64612">
        <ele>1404</ele>
        <time>2013-01-23T09:00:35Z</time>
      </trkpt>
      <trkpt lat="45.14872" lon="5.64612">
        <ele>1404</ele>
        <time>2013-01-23T09:00:36Z</time>
      </trkpt>
      <trkpt lat="45.14867" lon="5.64615">
        <ele>1402</ele>
        <time>2013-01-23T09:01:06Z</time>
      </trkpt>
      <trkpt lat="45.14868" lon="5.64615">
        <ele>1402</ele>
        <time>2013-01-23T09:01:13Z</time>
      </trkpt>
      <trkpt lat="45.14871" lon="5.64619">
        <ele>1398</ele>
        <time>2013-01-23T09:01:17Z</time>
      </trkpt>
      <trkpt lat="45.14874" lon="5.64626">
        <ele>1395</ele>
        <time>2013-01-23T09:01:20Z</time>
      </trkpt>
      <trkpt lat="45.14877" lon="5.64628">
        <ele>1392</ele>
        <time>2013-01-23T09:01:22Z</time>
      </trkpt>
      <trkpt lat="45.14881" lon="5.64635">
        <ele>1388</ele>
        <time>2013-01-23T09:01:25Z</time>
      </trkpt>
      <trkpt lat="45.14884" lon="5.64639">
        <ele>1385</ele>
        <time>2013-01-23T09:01:27Z</time>
      </trkpt>
      <trkpt lat="45.14889" lon="5.64638">
        <ele>1382</ele>
        <time>2013-01-23T09:01:30Z</time>
      </trkpt>
      <trkpt lat="45.14892" lon="5.6464">
        <ele>1381</ele>
        <time>2013-01-23T09:01:32Z</time>
      </trkpt>
      <trkpt lat="45.14886" lon="5.64647">
        <ele>1378</ele>
        <time>2013-01-23T09:01:38Z</time>
      </trkpt>
      <trkpt lat="45.14887" lon="5.64646">
        <ele>1379</ele>
        <time>2013-01-23T09:02:29Z</time>
      </trkpt>
      <trkpt lat="45.1489" lon="5.64642">
        <ele>1376</ele>
        <time>2013-01-23T09:02:53Z</time>
      </trkpt>
      <trkpt lat="45.14893" lon="5.64634">
        <ele>1376</ele>
        <time>2013-01-23T09:03:10Z</time>
      </trkpt>
      <trkpt lat="45.14901" lon="5.64625">
        <ele>1376</ele>
        <time>2013-01-23T09:03:31Z</time>
      </trkpt>
      <trkpt lat="45.14903" lon="5.64613">
        <ele>1374</ele>
        <time>2013-01-23T09:03:53Z</time>
      </trkpt>
      <trkpt lat="45.14899" lon="5.64608">
        <ele>1370</ele>
        <time>2013-01-23T09:04:02Z</time>
      </trkpt>
      <trkpt lat="45.14898" lon="5.64604">
        <ele>1368</ele>
        <time>2013-01-23T09:04:14Z</time>
      </trkpt>
      <trkpt lat="45.14904" lon="5.64609">
        <ele>1362</ele>
        <time>2013-01-23T09:04:17Z</time>
      </trkpt>
      <trkpt lat="45.14906" lon="5.64615">
        <ele>1358</ele>
        <time>2013-01-23T09:04:19Z</time>
      </trkpt>
      <trkpt lat="45.14907" lon="5.64615">
        <ele>1358</ele>
        <time>2013-01-23T09:04:20Z</time>
      </trkpt>
      <trkpt lat="45.14908" lon="5.64614">
        <ele>1357</ele>
        <time>2013-01-23T09:04:22Z</time>
      </trkpt>
      <trkpt lat="45.14918" lon="5.64606">
        <ele>1352</ele>
        <time>2013-01-23T09:04:26Z</time>
      </trkpt>
      <trkpt lat="45.14921" lon="5.64602">
        <ele>1351</ele>
        <time>2013-01-23T09:04:27Z</time>
      </trkpt>
      <trkpt lat="45.1493" lon="5.64608">
        <ele>1346</ele>
        <time>2013-01-23T09:04:30Z</time>
      </trkpt>
      <trkpt lat="45.14932" lon="5.64611">
        <ele>1344</ele>
        <time>2013-01-23T09:04:31Z</time>
      </trkpt>
      <trkpt lat="45.14943" lon="5.64609">
        <ele>1340</ele>
        <time>2013-01-23T09:04:35Z</time>
      </trkpt>
      <trkpt lat="45.1494" lon="5.64602">
        <ele>1340</ele>
        <time>2013-01-23T09:04:45Z</time>
      </trkpt>
      <trkpt lat="45.1494" lon="5.64601">
        <ele>1341</ele>
        <time>2013-01-23T09:05:40Z</time>
      </trkpt>
      <trkpt lat="45.14939" lon="5.64614">
        <ele>1338</ele>
        <time>2013-01-23T09:05:46Z</time>
      </trkpt>
      <trkpt lat="45.14944" lon="5.64619">
        <ele>1334</ele>
        <time>2013-01-23T09:05:48Z</time>
      </trkpt>
      <trkpt lat="45.14949" lon="5.6463">
        <ele>1330</ele>
        <time>2013-01-23T09:05:50Z</time>
      </trkpt>
      <trkpt lat="45.14953" lon="5.64643">
        <ele>1327</ele>
        <time>2013-01-23T09:05:52Z</time>
      </trkpt>
      <trkpt lat="45.14956" lon="5.64654">
        <ele>1323</ele>
        <time>2013-01-23T09:05:54Z</time>
      </trkpt>
      <trkpt lat="45.14963" lon="5.64657">
        <ele>1319</ele>
        <time>2013-01-23T09:05:57Z</time>
      </trkpt>
      <trkpt lat="45.14967" lon="5.64658">
        <ele>1316</ele>
        <time>2013-01-23T09:05:59Z</time>
      </trkpt>
      <trkpt lat="45.14978" lon="5.64656">
        <ele>1310</ele>
        <time>2013-01-23T09:06:02Z</time>
      </trkpt>
      <trkpt lat="45.1498" lon="5.64659">
        <ele>1310</ele>
        <time>2013-01-23T09:06:03Z</time>
      </trkpt>
      <trkpt lat="45.14982" lon="5.64666">
        <ele>1307</ele>
        <time>2013-01-23T09:06:05Z</time>
      </trkpt>
      <trkpt lat="45.14985" lon="5.64673">
        <ele>1303</ele>
        <time>2013-01-23T09:06:07Z</time>
      </trkpt>
      <trkpt lat="45.1499" lon="5.64681">
        <ele>1298</ele>
        <time>2013-01-23T09:06:09Z</time>
      </trkpt>
      <trkpt lat="45.14992" lon="5.64682">
        <ele>1296</ele>
        <time>2013-01-23T09:06:10Z</time>
      </trkpt>
      <trkpt lat="45.14999" lon="5.64677">
        <ele>1292</ele>
        <time>2013-01-23T09:06:14Z</time>
      </trkpt>
      <trkpt lat="45.15001" lon="5.64678">
        <ele>1290</ele>
        <time>2013-01-23T09:06:26Z</time>
      </trkpt>
      <trkpt lat="45.15001" lon="5.64678">
        <ele>1289</ele>
        <time>2013-01-23T09:06:28Z</time>
      </trkpt>
      <trkpt lat="45.15006" lon="5.64677">
        <ele>1286</ele>
        <time>2013-01-23T09:06:34Z</time>
      </trkpt>
      <trkpt lat="45.15005" lon="5.64675">
        <ele>1285</ele>
        <time>2013-01-23T09:06:36Z</time>
      </trkpt>
      <trkpt lat="45.15004" lon="5.64676">
        <ele>1285</ele>
        <time>2013-01-23T09:06:48Z</time>
      </trkpt>
      <trkpt lat="45.15005" lon="5.64673">
        <ele>1285</ele>
        <time>2013-01-23T09:06:50Z</time>
      </trkpt>
      <trkpt lat="45.15013" lon="5.64674">
        <ele>1283</ele>
        <time>2013-01-23T09:06:59Z</time>
      </trkpt>
      <trkpt lat="45.15015" lon="5.64672">
        <ele>1283</ele>
        <time>2013-01-23T09:07:06Z</time>
      </trkpt>
      <trkpt lat="45.15023" lon="5.64675">
        <ele>1280</ele>
        <time>2013-01-23T09:07:10Z</time>
      </trkpt>
      <trkpt lat="45.15029" lon="5.64673">
        <ele>1278</ele>
        <time>2013-01-23T09:07:12Z</time>
      </trkpt>
      <trkpt lat="45.1504" lon="5.64679">
        <ele>1273</ele>
        <time>2013-01-23T09:07:16Z</time>
      </trkpt>
      <trkpt lat="45.15042" lon="5.64679">
        <ele>1273</ele>
        <time>2013-01-23T09:07:17Z</time>
      </trkpt>
      <trkpt lat="45.15045" lon="5.64679">
        <ele>1269</ele>
        <time>2013-01-23T09:07:20Z</time>
      </trkpt>
      <trkpt lat="45.15047" lon="5.64681">
        <ele>1266</ele>
        <time>2013-01-23T09:07:27Z</time>
      </trkpt>
      <trkpt lat="45.15049" lon="5.64683">
        <ele>1264</ele>
        <time>2013-01-23T09:07:32Z</time>
      </trkpt>
      <trkpt lat="45.15064" lon="5.64683">
        <ele>1261</ele>
        <time>2013-01-23T09:07:53Z</time>
      </trkpt>
      <trkpt lat="45.15069" lon="5.6469">
        <ele>1258</ele>
        <time>2013-01-23T09:07:56Z</time>
      </trkpt>
      <trkpt lat="45.15081" lon="5.64678">
        <ele>1256</ele>
        <time>2013-01-23T09:08:03Z</time>
      </trkpt>
      <trkpt lat="45.15089" lon="5.64672">
        <ele>1254</ele>
        <time>2013-01-23T09:08:20Z</time>
      </trkpt>
      <trkpt lat="45.15114" lon="5.64659">
        <ele>1252</ele>
        <time>2013-01-23T09:08:26Z</time>
      </trkpt>
      <trkpt lat="45.15138" lon="5.64654">
        <ele>1249</ele>
        <time>2013-01-23T09:08:31Z</time>
      </trkpt>
      <trkpt lat="45.15146" lon="5.64651">
        <ele>1248</ele>
        <time>2013-01-23T09:08:42Z</time>
      </trkpt>
      <trkpt lat="45.15149" lon="5.6465">
        <ele>1250</ele>
        <time>2013-01-23T09:09:03Z</time>
      </trkpt>
      <trkpt lat="45.15158" lon="5.64641">
        <ele>1250</ele>
        <time>2013-01-23T09:09:14Z</time>
      </trkpt>
      <trkpt lat="45.15172" lon="5.64632">
        <ele>1251</ele>
        <time>2013-01-23T09:09:34Z</time>
      </trkpt>
      <trkpt lat="45.15176" lon="5.64631">
        <ele>1251</ele>
        <time>2013-01-23T09:10:16Z</time>
      </trkpt>
      <trkpt lat="45.15178" lon="5.64626">
        <ele>1251</ele>
        <time>2013-01-23T09:11:20Z</time>
      </trkpt>
      <trkpt lat="45.15176" lon="5.64624">
        <ele>1253</ele>
        <time>2013-01-23T09:13:45Z</time>
      </trkpt>
      <trkpt lat="45.1518" lon="5.64624">
        <ele>1254</ele>
        <time>2013-01-23T09:14:14Z</time>
      </trkpt>
      <trkpt lat="45.15179" lon="5.64625">
        <ele>1254</ele>
        <time>2013-01-23T09:15:32Z</time>
      </trkpt>
      <trkpt lat="45.15175" lon="5.64626">
        <ele>1255</ele>
        <time>2013-01-23T09:16:01Z</time>
      </trkpt>
      <trkpt lat="45.15182" lon="5.64609">
        <ele>1258</ele>
        <time>2013-01-23T09:17:18Z</time>
      </trkpt>
      <trkpt lat="45.15187" lon="5.64598">
        <ele>1260</ele>
        <time>2013-01-23T09:17:36Z</time>
      </trkpt>
      <trkpt lat="45.15194" lon="5.6459">
        <ele>1263</ele>
        <time>2013-01-23T09:17:54Z</time>
      </trkpt>
      <trkpt lat="45.15197" lon="5.64577">
        <ele>1267</ele>
        <time>2013-01-23T09:18:12Z</time>
      </trkpt>
      <trkpt lat="45.15201" lon="5.64566">
        <ele>1270</ele>
        <time>2013-01-23T09:18:28Z</time>
      </trkpt>
      <trkpt lat="45.15215" lon="5.64551">
        <ele>1272</ele>
        <time>2013-01-23T09:18:46Z</time>
      </trkpt>
      <trkpt lat="45.15228" lon="5.64543">
        <ele>1275</ele>
        <time>2013-01-23T09:19:08Z</time>
      </trkpt>
      <trkpt lat="45.15244" lon="5.64539">
        <ele>1278</ele>
        <time>2013-01-23T09:19:31Z</time>
      </trkpt>
      <trkpt lat="45.15255" lon="5.6453">
        <ele>1282</ele>
        <time>2013-01-23T09:19:51Z</time>
      </trkpt>
      <trkpt lat="45.15262" lon="5.64526">
        <ele>1284</ele>
        <time>2013-01-23T09:20:08Z</time>
      </trkpt>
      <trkpt lat="45.15263" lon="5.64525">
        <ele>1284</ele>
        <time>2013-01-23T09:20:09Z</time>
      </trkpt>
      <trkpt lat="45.15274" lon="5.64531">
        <ele>1283</ele>
        <time>2013-01-23T09:20:19Z</time>
      </trkpt>
      <trkpt lat="45.15285" lon="5.6453">
        <ele>1284</ele>
        <time>2013-01-23T09:20:34Z</time>
      </trkpt>
      <trkpt lat="45.15292" lon="5.64529">
        <ele>1284</ele>
        <time>2013-01-23T09:20:42Z</time>
      </trkpt>
      <trkpt lat="45.15308" lon="5.64526">
        <ele>1286</ele>
        <time>2013-01-23T09:21:01Z</time>
      </trkpt>
      <trkpt lat="45.15324" lon="5.64523">
        <ele>1287</ele>
        <time>2013-01-23T09:21:19Z</time>
      </trkpt>
      <trkpt lat="45.15339" lon="5.64516">
        <ele>1288</ele>
        <time>2013-01-23T09:21:36Z</time>
      </trkpt>
      <trkpt lat="45.15358" lon="5.64509">
        <ele>1289</ele>
        <time>2013-01-23T09:21:58Z</time>
      </trkpt>
      <trkpt lat="45.15374" lon="5.64504">
        <ele>1290</ele>
        <time>2013-01-23T09:22:21Z</time>
      </trkpt>
      <trkpt lat="45.15389" lon="5.64496">
        <ele>1290</ele>
        <time>2013-01-23T09:22:58Z</time>
      </trkpt>
      <trkpt lat="45.15404" lon="5.64493">
        <ele>1289</ele>
        <time>2013-01-23T09:23:13Z</time>
      </trkpt>
      <trkpt lat="45.15409" lon="5.64494">
        <ele>1289</ele>
        <time>2013-01-23T09:23:18Z</time>
      </trkpt>
      <trkpt lat="45.15425" lon="5.64494">
        <ele>1290</ele>
        <time>2013-01-23T09:23:34Z</time>
      </trkpt>
      <trkpt lat="45.15429" lon="5.6449">
        <ele>1290</ele>
        <time>2013-01-23T09:23:38Z</time>
      </trkpt>
      <trkpt lat="45.15431" lon="5.64489">
        <ele>1291</ele>
        <time>2013-01-23T09:23:41Z</time>
      </trkpt>
      <trkpt lat="45.15434" lon="5.64488">
        <ele>1291</ele>
        <time>2013-01-23T09:23:44Z</time>
      </trkpt>
      <trkpt lat="45.15446" lon="5.64487">
        <ele>1290</ele>
        <time>2013-01-23T09:23:52Z</time>
      </trkpt>
      <trkpt lat="45.15449" lon="5.64488">
        <ele>1290</ele>
        <time>2013-01-23T09:23:55Z</time>
      </trkpt>
      <trkpt lat="45.15467" lon="5.64491">
        <ele>1289</ele>
        <time>2013-01-23T09:24:08Z</time>
      </trkpt>
      <trkpt lat="45.15471" lon="5.64492">
        <ele>1289</ele>
        <time>2013-01-23T09:24:10Z</time>
      </trkpt>
      <trkpt lat="45.15487" lon="5.64492">
        <ele>1287</ele>
        <time>2013-01-23T09:24:21Z</time>
      </trkpt>
      <trkpt lat="45.15508" lon="5.64493">
        <ele>1284</ele>
        <time>2013-01-23T09:24:33Z</time>
      </trkpt>
      <trkpt lat="45.15528" lon="5.64494">
        <ele>1280</ele>
        <time>2013-01-23T09:24:40Z</time>
      </trkpt>
      <trkpt lat="45.15535" lon="5.64493">
        <ele>1279</ele>
        <time>2013-01-23T09:24:42Z</time>
      </trkpt>
      <trkpt lat="45.15545" lon="5.64489">
        <ele>1276</ele>
        <time>2013-01-23T09:24:46Z</time>
      </trkpt>
      <trkpt lat="45.15553" lon="5.64485">
        <ele>1274</ele>
        <time>2013-01-23T09:24:57Z</time>
      </trkpt>
      <trkpt lat="45.1556" lon="5.64484">
        <ele>1275</ele>
        <time>2013-01-23T09:25:02Z</time>
      </trkpt>
      <trkpt lat="45.15566" lon="5.64484">
        <ele>1275</ele>
        <time>2013-01-23T09:25:10Z</time>
      </trkpt>
      <trkpt lat="45.15569" lon="5.64483">
        <ele>1276</ele>
        <time>2013-01-23T09:25:13Z</time>
      </trkpt>
      <trkpt lat="45.15586" lon="5.64485">
        <ele>1274</ele>
        <time>2013-01-23T09:25:24Z</time>
      </trkpt>
      <trkpt lat="45.15606" lon="5.64503">
        <ele>1271</ele>
        <time>2013-01-23T09:25:36Z</time>
      </trkpt>
      <trkpt lat="45.15621" lon="5.64517">
        <ele>1268</ele>
        <time>2013-01-23T09:25:40Z</time>
      </trkpt>
      <trkpt lat="45.15631" lon="5.64523">
        <ele>1266</ele>
        <time>2013-01-23T09:25:43Z</time>
      </trkpt>
      <trkpt lat="45.15643" lon="5.64527">
        <ele>1263</ele>
        <time>2013-01-23T09:25:46Z</time>
      </trkpt>
      <trkpt lat="45.15658" lon="5.64525">
        <ele>1259</ele>
        <time>2013-01-23T09:25:50Z</time>
      </trkpt>
      <trkpt lat="45.15668" lon="5.6452">
        <ele>1257</ele>
        <time>2013-01-23T09:25:52Z</time>
      </trkpt>
      <trkpt lat="45.15691" lon="5.64524">
        <ele>1253</ele>
        <time>2013-01-23T09:25:56Z</time>
      </trkpt>
      <trkpt lat="45.15696" lon="5.64528">
        <ele>1249</ele>
        <time>2013-01-23T09:25:58Z</time>
      </trkpt>
      <trkpt lat="45.15696" lon="5.64528">
        <ele>1246</ele>
        <time>2013-01-23T09:26:02Z</time>
      </trkpt>
      <trkpt lat="45.15709" lon="5.64528">
        <ele>1244</ele>
        <time>2013-01-23T09:26:14Z</time>
      </trkpt>
      <trkpt lat="45.1573" lon="5.64524">
        <ele>1239</ele>
        <time>2013-01-23T09:26:18Z</time>
      </trkpt>
      <trkpt lat="45.15741" lon="5.64518">
        <ele>1235</ele>
        <time>2013-01-23T09:26:20Z</time>
      </trkpt>
      <trkpt lat="45.15749" lon="5.64512">
        <ele>1234</ele>
        <time>2013-01-23T09:26:22Z</time>
      </trkpt>
      <trkpt lat="45.15749" lon="5.64512">
        <ele>1230</ele>
        <time>2013-01-23T09:26:24Z</time>
      </trkpt>
      <trkpt lat="45.1575" lon="5.64512">
        <ele>1228</ele>
        <time>2013-01-23T09:26:29Z</time>
      </trkpt>
      <trkpt lat="45.15772" lon="5.64508">
        <ele>1224</ele>
        <time>2013-01-23T09:26:35Z</time>
      </trkpt>
      <trkpt lat="45.15776" lon="5.64508">
        <ele>1223</ele>
        <time>2013-01-23T09:26:36Z</time>
      </trkpt>
      <trkpt lat="45.1578" lon="5.64508">
        <ele>1219</ele>
        <time>2013-01-23T09:26:41Z</time>
      </trkpt>
      <trkpt lat="45.1578" lon="5.64508">
        <ele>1219</ele>
        <time>2013-01-23T09:27:08Z</time>
      </trkpt>
      <trkpt lat="45.15806" lon="5.64513">
        <ele>1215</ele>
        <time>2013-01-23T09:27:18Z</time>
      </trkpt>
      <trkpt lat="45.15816" lon="5.64513">
        <ele>1211</ele>
        <time>2013-01-23T09:27:22Z</time>
      </trkpt>
      <trkpt lat="45.1583" lon="5.64514">
        <ele>1209</ele>
        <time>2013-01-23T09:27:26Z</time>
      </trkpt>
      <trkpt lat="45.15843" lon="5.64513">
        <ele>1206</ele>
        <time>2013-01-23T09:27:29Z</time>
      </trkpt>
      <trkpt lat="45.15862" lon="5.64519">
        <ele>1201</ele>
        <time>2013-01-23T09:27:33Z</time>
      </trkpt>
      <trkpt lat="45.15866" lon="5.64521">
        <ele>1200</ele>
        <time>2013-01-23T09:27:34Z</time>
      </trkpt>
      <trkpt lat="45.15882" lon="5.64525">
        <ele>1196</ele>
        <time>2013-01-23T09:27:38Z</time>
      </trkpt>
      <trkpt lat="45.15893" lon="5.64526">
        <ele>1194</ele>
        <time>2013-01-23T09:27:41Z</time>
      </trkpt>
      <trkpt lat="45.15901" lon="5.64528">
        <ele>1192</ele>
        <time>2013-01-23T09:27:44Z</time>
      </trkpt>
      <trkpt lat="45.15919" lon="5.64545">
        <ele>1188</ele>
        <time>2013-01-23T09:27:53Z</time>
      </trkpt>
      <trkpt lat="45.15927" lon="5.64555">
        <ele>1186</ele>
        <time>2013-01-23T09:27:56Z</time>
      </trkpt>
      <trkpt lat="45.15936" lon="5.64555">
        <ele>1185</ele>
        <time>2013-01-23T09:27:59Z</time>
      </trkpt>
      <trkpt lat="45.15939" lon="5.64553">
        <ele>1183</ele>
        <time>2013-01-23T09:28:11Z</time>
      </trkpt>
      <trkpt lat="45.15939" lon="5.64553">
        <ele>1183</ele>
        <time>2013-01-23T09:28:21Z</time>
      </trkpt>
      <trkpt lat="45.15966" lon="5.64549">
        <ele>1179</ele>
        <time>2013-01-23T09:28:28Z</time>
      </trkpt>
      <trkpt lat="45.15977" lon="5.64551">
        <ele>1176</ele>
        <time>2013-01-23T09:28:32Z</time>
      </trkpt>
      <trkpt lat="45.15977" lon="5.64549">
        <ele>1173</ele>
        <time>2013-01-23T09:28:37Z</time>
      </trkpt>
      <trkpt lat="45.15996" lon="5.64545">
        <ele>1170</ele>
        <time>2013-01-23T09:28:42Z</time>
      </trkpt>
      <trkpt lat="45.16004" lon="5.64543">
        <ele>1169</ele>
        <time>2013-01-23T09:28:44Z</time>
      </trkpt>
      <trkpt lat="45.16016" lon="5.64545">
        <ele>1165</ele>
        <time>2013-01-23T09:28:47Z</time>
      </trkpt>
      <trkpt lat="45.16024" lon="5.64544">
        <ele>1164</ele>
        <time>2013-01-23T09:28:49Z</time>
      </trkpt>
      <trkpt lat="45.16033" lon="5.64547">
        <ele>1160</ele>
        <time>2013-01-23T09:28:53Z</time>
      </trkpt>
      <trkpt lat="45.16033" lon="5.64547">
        <ele>1159</ele>
        <time>2013-01-23T09:28:55Z</time>
      </trkpt>
      <trkpt lat="45.16036" lon="5.64545">
        <ele>1158</ele>
        <time>2013-01-23T09:29:06Z</time>
      </trkpt>
      <trkpt lat="45.16053" lon="5.6454">
        <ele>1154</ele>
        <time>2013-01-23T09:29:12Z</time>
      </trkpt>
      <trkpt lat="45.16064" lon="5.64536">
        <ele>1151</ele>
        <time>2013-01-23T09:29:16Z</time>
      </trkpt>
      <trkpt lat="45.1608" lon="5.64536">
        <ele>1148</ele>
        <time>2013-01-23T09:29:21Z</time>
      </trkpt>
      <trkpt lat="45.16094" lon="5.64537">
        <ele>1145</ele>
        <time>2013-01-23T09:29:25Z</time>
      </trkpt>
      <trkpt lat="45.16102" lon="5.64535">
        <ele>1144</ele>
        <time>2013-01-23T09:29:27Z</time>
      </trkpt>
      <trkpt lat="45.16112" lon="5.64533">
        <ele>1141</ele>
        <time>2013-01-23T09:29:30Z</time>
      </trkpt>
      <trkpt lat="45.16126" lon="5.64529">
        <ele>1137</ele>
        <time>2013-01-23T09:29:35Z</time>
      </trkpt>
      <trkpt lat="45.16135" lon="5.64528">
        <ele>1134</ele>
        <time>2013-01-23T09:29:49Z</time>
      </trkpt>
      <trkpt lat="45.16136" lon="5.64529">
        <ele>1133</ele>
        <time>2013-01-23T09:30:01Z</time>
      </trkpt>
      <trkpt lat="45.16166" lon="5.64541">
        <ele>1130</ele>
        <time>2013-01-23T09:30:10Z</time>
      </trkpt>
      <trkpt lat="45.16171" lon="5.64545">
        <ele>1129</ele>
        <time>2013-01-23T09:30:12Z</time>
      </trkpt>
      <trkpt lat="45.16175" lon="5.64544">
        <ele>1128</ele>
        <time>2013-01-23T09:30:14Z</time>
      </trkpt>
      <trkpt lat="45.16183" lon="5.64544">
        <ele>1124</ele>
        <time>2013-01-23T09:30:29Z</time>
      </trkpt>
      <trkpt lat="45.16194" lon="5.64547">
        <ele>1123</ele>
        <time>2013-01-23T09:30:40Z</time>
      </trkpt>
      <trkpt lat="45.16206" lon="5.64544">
        <ele>1122</ele>
        <time>2013-01-23T09:30:43Z</time>
      </trkpt>
      <trkpt lat="45.16229" lon="5.64542">
        <ele>1118</ele>
        <time>2013-01-23T09:30:47Z</time>
      </trkpt>
      <trkpt lat="45.16245" lon="5.6454">
        <ele>1113</ele>
        <time>2013-01-23T09:30:52Z</time>
      </trkpt>
      <trkpt lat="45.16274" lon="5.6455">
        <ele>1110</ele>
        <time>2013-01-23T09:31:04Z</time>
      </trkpt>
      <trkpt lat="45.16278" lon="5.6455">
        <ele>1110</ele>
        <time>2013-01-23T09:31:05Z</time>
      </trkpt>
      <trkpt lat="45.163" lon="5.64548">
        <ele>1107</ele>
        <time>2013-01-23T09:31:11Z</time>
      </trkpt>
      <trkpt lat="45.16306" lon="5.64547">
        <ele>1104</ele>
        <time>2013-01-23T09:31:22Z</time>
      </trkpt>
      <trkpt lat="45.16306" lon="5.64547">
        <ele>1104</ele>
        <time>2013-01-23T09:31:23Z</time>
      </trkpt>
      <trkpt lat="45.16331" lon="5.64541">
        <ele>1100</ele>
        <time>2013-01-23T09:31:32Z</time>
      </trkpt>
      <trkpt lat="45.16332" lon="5.64539">
        <ele>1098</ele>
        <time>2013-01-23T09:31:36Z</time>
      </trkpt>
      <trkpt lat="45.16332" lon="5.64539">
        <ele>1098</ele>
        <time>2013-01-23T09:32:22Z</time>
      </trkpt>
      <trkpt lat="45.16349" lon="5.64525">
        <ele>1097</ele>
        <time>2013-01-23T09:32:39Z</time>
      </trkpt>
      <trkpt lat="45.16359" lon="5.64515">
        <ele>1095</ele>
        <time>2013-01-23T09:32:51Z</time>
      </trkpt>
      <trkpt lat="45.1636" lon="5.64515">
        <ele>1095</ele>
        <time>2013-01-23T09:32:52Z</time>
      </trkpt>
      <trkpt lat="45.16363" lon="5.64513">
        <ele>1094</ele>
        <time>2013-01-23T09:32:55Z</time>
      </trkpt>
      <trkpt lat="45.16366" lon="5.64512">
        <ele>1093</ele>
        <time>2013-01-23T09:32:58Z</time>
      </trkpt>
      <trkpt lat="45.16377" lon="5.645">
        <ele>1089</ele>
        <time>2013-01-23T09:33:10Z</time>
      </trkpt>
      <trkpt lat="45.16385" lon="5.64492">
        <ele>1087</ele>
        <time>2013-01-23T09:33:27Z</time>
      </trkpt>
      <trkpt lat="45.16391" lon="5.64487">
        <ele>1087</ele>
        <time>2013-01-23T09:34:02Z</time>
      </trkpt>
      <trkpt lat="45.16402" lon="5.64478">
        <ele>1087</ele>
        <time>2013-01-23T09:34:14Z</time>
      </trkpt>
      <trkpt lat="45.16404" lon="5.64476">
        <ele>1087</ele>
        <time>2013-01-23T09:34:17Z</time>
      </trkpt>
      <trkpt lat="45.16408" lon="5.64476">
        <ele>1087</ele>
        <time>2013-01-23T09:34:20Z</time>
      </trkpt>
      <trkpt lat="45.16421" lon="5.64464">
        <ele>1085</ele>
        <time>2013-01-23T09:34:31Z</time>
      </trkpt>
      <trkpt lat="45.16423" lon="5.64461">
        <ele>1086</ele>
        <time>2013-01-23T09:34:50Z</time>
      </trkpt>
      <trkpt lat="45.16425" lon="5.64458">
        <ele>1086</ele>
        <time>2013-01-23T09:34:54Z</time>
      </trkpt>
      <trkpt lat="45.16428" lon="5.64457">
        <ele>1085</ele>
        <time>2013-01-23T09:35:00Z</time>
      </trkpt>
      <trkpt lat="45.16432" lon="5.64456">
        <ele>1084</ele>
        <time>2013-01-23T09:35:05Z</time>
      </trkpt>
      <trkpt lat="45.16438" lon="5.64451">
        <ele>1083</ele>
        <time>2013-01-23T09:35:18Z</time>
      </trkpt>
      <trkpt lat="45.16444" lon="5.64447">
        <ele>1079</ele>
        <time>2013-01-23T09:35:52Z</time>
      </trkpt>
      <trkpt lat="45.16451" lon="5.64443">
        <ele>1076</ele>
        <time>2013-01-23T09:36:00Z</time>
      </trkpt>
      <trkpt lat="45.16461" lon="5.64436">
        <ele>1073</ele>
        <time>2013-01-23T09:36:12Z</time>
      </trkpt>
      <trkpt lat="45.1647" lon="5.64434">
        <ele>1070</ele>
        <time>2013-01-23T09:36:21Z</time>
      </trkpt>
      <trkpt lat="45.16472" lon="5.64432">
        <ele>1069</ele>
        <time>2013-01-23T09:36:24Z</time>
      </trkpt>
      <trkpt lat="45.16475" lon="5.64434">
        <ele>1068</ele>
        <time>2013-01-23T09:36:27Z</time>
      </trkpt>
      <trkpt lat="45.16485" lon="5.64425">
        <ele>1064</ele>
        <time>2013-01-23T09:36:39Z</time>
      </trkpt>
      <trkpt lat="45.16499" lon="5.64414">
        <ele>1061</ele>
        <time>2013-01-23T09:36:53Z</time>
      </trkpt>
      <trkpt lat="45.16518" lon="5.64403">
        <ele>1058</ele>
        <time>2013-01-23T09:37:08Z</time>
      </trkpt>
      <trkpt lat="45.16531" lon="5.64397">
        <ele>1059</ele>
        <time>2013-01-23T09:37:22Z</time>
      </trkpt>
      <trkpt lat="45.16541" lon="5.64388">
        <ele>1059</ele>
        <time>2013-01-23T09:37:31Z</time>
      </trkpt>
      <trkpt lat="45.16555" lon="5.64377">
        <ele>1057</ele>
        <time>2013-01-23T09:37:42Z</time>
      </trkpt>
      <trkpt lat="45.16574" lon="5.6436">
        <ele>1053</ele>
        <time>2013-01-23T09:37:59Z</time>
      </trkpt>
      <trkpt lat="45.16584" lon="5.64348">
        <ele>1052</ele>
        <time>2013-01-23T09:38:11Z</time>
      </trkpt>
      <trkpt lat="45.16596" lon="5.64337">
        <ele>1050</ele>
        <time>2013-01-23T09:38:26Z</time>
      </trkpt>
      <trkpt lat="45.16603" lon="5.6431">
        <ele>1052</ele>
        <time>2013-01-23T09:38:48Z</time>
      </trkpt>
      <trkpt lat="45.16606" lon="5.64291">
        <ele>1054</ele>
        <time>2013-01-23T09:39:02Z</time>
      </trkpt>
      <trkpt lat="45.16613" lon="5.6427">
        <ele>1056</ele>
        <time>2013-01-23T09:39:23Z</time>
      </trkpt>
      <trkpt lat="45.16619" lon="5.64271">
        <ele>1058</ele>
        <time>2013-01-23T09:39:42Z</time>
      </trkpt>
      <trkpt lat="45.16628" lon="5.6426">
        <ele>1059</ele>
        <time>2013-01-23T09:40:04Z</time>
      </trkpt>
      <trkpt lat="45.1664" lon="5.64246">
        <ele>1060</ele>
        <time>2013-01-23T09:40:22Z</time>
      </trkpt>
      <trkpt lat="45.16656" lon="5.64221">
        <ele>1063</ele>
        <time>2013-01-23T09:40:45Z</time>
      </trkpt>
      <trkpt lat="45.16664" lon="5.6421">
        <ele>1064</ele>
        <time>2013-01-23T09:40:58Z</time>
      </trkpt>
      <trkpt lat="45.16682" lon="5.64191">
        <ele>1065</ele>
        <time>2013-01-23T09:41:17Z</time>
      </trkpt>
      <trkpt lat="45.16697" lon="5.64169">
        <ele>1066</ele>
        <time>2013-01-23T09:41:34Z</time>
      </trkpt>
      <trkpt lat="45.16708" lon="5.64159">
        <ele>1067</ele>
        <time>2013-01-23T09:41:47Z</time>
      </trkpt>
      <trkpt lat="45.16713" lon="5.64158">
        <ele>1067</ele>
        <time>2013-01-23T09:41:51Z</time>
      </trkpt>
      <trkpt lat="45.16716" lon="5.64157">
        <ele>1068</ele>
        <time>2013-01-23T09:41:54Z</time>
      </trkpt>
      <trkpt lat="45.16718" lon="5.64157">
        <ele>1068</ele>
        <time>2013-01-23T09:41:56Z</time>
      </trkpt>
      <trkpt lat="45.16734" lon="5.64138">
        <ele>1069</ele>
        <time>2013-01-23T09:42:14Z</time>
      </trkpt>
      <trkpt lat="45.16747" lon="5.64133">
        <ele>1070</ele>
        <time>2013-01-23T09:42:27Z</time>
      </trkpt>
      <trkpt lat="45.16763" lon="5.64121">
        <ele>1070</ele>
        <time>2013-01-23T09:42:42Z</time>
      </trkpt>
      <trkpt lat="45.16772" lon="5.64114">
        <ele>1071</ele>
        <time>2013-01-23T09:42:53Z</time>
      </trkpt>
      <trkpt lat="45.16789" lon="5.6411">
        <ele>1073</ele>
        <time>2013-01-23T09:43:09Z</time>
      </trkpt>
      <trkpt lat="45.16804" lon="5.64101">
        <ele>1076</ele>
        <time>2013-01-23T09:43:46Z</time>
      </trkpt>
      <trkpt lat="45.1681" lon="5.64092">
        <ele>1078</ele>
        <time>2013-01-23T09:43:54Z</time>
      </trkpt>
      <trkpt lat="45.16821" lon="5.64078">
        <ele>1080</ele>
        <time>2013-01-23T09:44:09Z</time>
      </trkpt>
      <trkpt lat="45.16836" lon="5.64072">
        <ele>1080</ele>
        <time>2013-01-23T09:44:24Z</time>
      </trkpt>
      <trkpt lat="45.16849" lon="5.64069">
        <ele>1081</ele>
        <time>2013-01-23T09:44:37Z</time>
      </trkpt>
      <trkpt lat="45.16866" lon="5.6407">
        <ele>1083</ele>
        <time>2013-01-23T09:44:54Z</time>
      </trkpt>
      <trkpt lat="45.1687" lon="5.64067">
        <ele>1084</ele>
        <time>2013-01-23T09:44:59Z</time>
      </trkpt>
      <trkpt lat="45.16882" lon="5.64054">
        <ele>1085</ele>
        <time>2013-01-23T09:45:13Z</time>
      </trkpt>
      <trkpt lat="45.16884" lon="5.64043">
        <ele>1086</ele>
        <time>2013-01-23T09:45:30Z</time>
      </trkpt>
      <trkpt lat="45.1688" lon="5.64038">
        <ele>1087</ele>
        <time>2013-01-23T09:45:55Z</time>
      </trkpt>
      <trkpt lat="45.16876" lon="5.64036">
        <ele>1089</ele>
        <time>2013-01-23T09:46:29Z</time>
      </trkpt>
      <trkpt lat="45.16864" lon="5.64029">
        <ele>1091</ele>
        <time>2013-01-23T09:46:41Z</time>
      </trkpt>
      <trkpt lat="45.16852" lon="5.64004">
        <ele>1094</ele>
        <time>2013-01-23T09:47:01Z</time>
      </trkpt>
      <trkpt lat="45.16845" lon="5.63979">
        <ele>1097</ele>
        <time>2013-01-23T09:47:19Z</time>
      </trkpt>
      <trkpt lat="45.16839" lon="5.6397">
        <ele>1098</ele>
        <time>2013-01-23T09:47:31Z</time>
      </trkpt>
      <trkpt lat="45.1683" lon="5.6396">
        <ele>1098</ele>
        <time>2013-01-23T09:47:47Z</time>
      </trkpt>
      <trkpt lat="45.16829" lon="5.63953">
        <ele>1099</ele>
        <time>2013-01-23T09:47:58Z</time>
      </trkpt>
      <trkpt lat="45.16818" lon="5.63943">
        <ele>1100</ele>
        <time>2013-01-23T09:48:16Z</time>
      </trkpt>
      <trkpt lat="45.16818" lon="5.63946">
        <ele>1100</ele>
        <time>2013-01-23T09:48:46Z</time>
      </trkpt>
      <trkpt lat="45.16818" lon="5.63943">
        <ele>1100</ele>
        <time>2013-01-23T09:48:50Z</time>
      </trkpt>
      <trkpt lat="45.16828" lon="5.63938">
        <ele>1099</ele>
        <time>2013-01-23T09:49:01Z</time>
      </trkpt>
      <trkpt lat="45.16831" lon="5.63939">
        <ele>1099</ele>
        <time>2013-01-23T09:49:12Z</time>
      </trkpt>
      <trkpt lat="45.16831" lon="5.6394">
        <ele>1099</ele>
        <time>2013-01-23T09:49:14Z</time>
      </trkpt>
      <trkpt lat="45.16834" lon="5.63954">
        <ele>1099</ele>
        <time>2013-01-23T09:49:29Z</time>
      </trkpt>
      <trkpt lat="45.16837" lon="5.63949">
        <ele>1098</ele>
        <time>2013-01-23T09:49:40Z</time>
      </trkpt>
      <trkpt lat="45.16839" lon="5.63949">
        <ele>1098</ele>
        <time>2013-01-23T09:49:42Z</time>
      </trkpt>
      <trkpt lat="45.16842" lon="5.63957">
        <ele>1098</ele>
        <time>2013-01-23T09:49:54Z</time>
      </trkpt>
      <trkpt lat="45.16852" lon="5.63958">
        <ele>1097</ele>
        <time>2013-01-23T09:50:01Z</time>
      </trkpt>
      <trkpt lat="45.16866" lon="5.63953">
        <ele>1097</ele>
        <time>2013-01-23T09:50:16Z</time>
      </trkpt>
      <trkpt lat="45.16872" lon="5.63951">
        <ele>1097</ele>
        <time>2013-01-23T09:50:28Z</time>
      </trkpt>
      <trkpt lat="45.16873" lon="5.63951">
        <ele>1097</ele>
        <time>2013-01-23T09:50:30Z</time>
      </trkpt>
      <trkpt lat="45.16883" lon="5.63944">
        <ele>1097</ele>
        <time>2013-01-23T09:50:44Z</time>
      </trkpt>
      <trkpt lat="45.16885" lon="5.63943">
        <ele>1096</ele>
        <time>2013-01-23T09:50:54Z</time>
      </trkpt>
      <trkpt lat="45.16891" lon="5.63943">
        <ele>1096</ele>
        <time>2013-01-23T09:51:10Z</time>
      </trkpt>
      <trkpt lat="45.16893" lon="5.63943">
        <ele>1096</ele>
        <time>2013-01-23T09:51:20Z</time>
      </trkpt>
    </trkseg>
  </trk>
</gpx>